<?xml version="1.0" encoding="utf-8"?>
<gpx xmlns:xsi="http://www.w3.org/2001/XMLSchema-instance" xmlns:xsd="http://www.w3.org/2001/XMLSchema" version="1.1" creator="Shapelink.com" xmlns="http://www.topografix.com/GPX/1/1" xmlns:gpxtpx="http://www.garmin.com/xmlschemas/TrackPointExtension/v1">
  <metadata>
    <name>Längdskidåkning - Klassisk 11.47 km, 2011-01-29</name>
    <desc></desc>
    <author><name>Alexander Engvall</name></author> 
    <time>2011-01-29T10:53:06Z</time>
  </metadata>
  <trk>
    <name>Längdskidåkning - Klassisk 11.47 km, 2011-01-29</name>
    <trkseg>
      <trkpt lat="59.4853216" lon="17.8765898">
        <ele>9.2699</ele>
        <time>2011-01-29T10:53:06Z</time>
      </trkpt>
      <trkpt lat="59.4854236" lon="17.8766705">
        <ele>10.7118</ele>
        <time>2011-01-29T10:53:10Z</time>
      </trkpt>
      <trkpt lat="59.4855366" lon="17.8767563">
        <ele>11.1925</ele>
        <time>2011-01-29T10:53:14Z</time>
      </trkpt>
      <trkpt lat="59.4856331" lon="17.8768801">
        <ele>11.6732</ele>
        <time>2011-01-29T10:53:18Z</time>
      </trkpt>
      <trkpt lat="59.4857724" lon="17.8770762">
        <ele>12.6344</ele>
        <time>2011-01-29T10:53:22Z</time>
      </trkpt>
      <trkpt lat="59.485978" lon="17.8772978">
        <ele>14.0764</ele>
        <time>2011-01-29T10:53:27Z</time>
      </trkpt>
      <trkpt lat="59.4860661" lon="17.8773919">
        <ele>15.0377</ele>
        <time>2011-01-29T10:53:29Z</time>
      </trkpt>
      <trkpt lat="59.4862008" lon="17.8775371">
        <ele>15.0377</ele>
        <time>2011-01-29T10:53:32Z</time>
      </trkpt>
      <trkpt lat="59.4863687" lon="17.8776977">
        <ele>15.5184</ele>
        <time>2011-01-29T10:53:36Z</time>
      </trkpt>
      <trkpt lat="59.4865277" lon="17.8778452">
        <ele>15.5184</ele>
        <time>2011-01-29T10:53:40Z</time>
      </trkpt>
      <trkpt lat="59.4866514" lon="17.8779558">
        <ele>13.5958</ele>
        <time>2011-01-29T10:53:43Z</time>
      </trkpt>
      <trkpt lat="59.4868474" lon="17.8781664">
        <ele>13.1151</ele>
        <time>2011-01-29T10:53:48Z</time>
      </trkpt>
      <trkpt lat="59.4870126" lon="17.8782058">
        <ele>14.0764</ele>
        <time>2011-01-29T10:53:52Z</time>
      </trkpt>
      <trkpt lat="59.4872628" lon="17.8779836">
        <ele>14.0764</ele>
        <time>2011-01-29T10:53:58Z</time>
      </trkpt>
      <trkpt lat="59.4874385" lon="17.8777855">
        <ele>12.6344</ele>
        <time>2011-01-29T10:54:02Z</time>
      </trkpt>
      <trkpt lat="59.4876329" lon="17.87767">
        <ele>10.2312</ele>
        <time>2011-01-29T10:54:06Z</time>
      </trkpt>
      <trkpt lat="59.4877491" lon="17.8775048">
        <ele>8.30859</ele>
        <time>2011-01-29T10:54:09Z</time>
      </trkpt>
      <trkpt lat="59.4878104" lon="17.8773896">
        <ele>7.34717</ele>
        <time>2011-01-29T10:54:11Z</time>
      </trkpt>
      <trkpt lat="59.4879077" lon="17.8772456">
        <ele>6.38586</ele>
        <time>2011-01-29T10:54:14Z</time>
      </trkpt>
      <trkpt lat="59.4880344" lon="17.8769215">
        <ele>4.46326</ele>
        <time>2011-01-29T10:54:19Z</time>
      </trkpt>
      <trkpt lat="59.4880743" lon="17.8767927">
        <ele>4.46326</ele>
        <time>2011-01-29T10:54:21Z</time>
      </trkpt>
      <trkpt lat="59.4881937" lon="17.8765511">
        <ele>2.54065</ele>
        <time>2011-01-29T10:54:26Z</time>
      </trkpt>
      <trkpt lat="59.4883273" lon="17.8765613">
        <ele>2.54065</ele>
        <time>2011-01-29T10:54:30Z</time>
      </trkpt>
      <trkpt lat="59.4884548" lon="17.8766399">
        <ele>3.02124</ele>
        <time>2011-01-29T10:54:34Z</time>
      </trkpt>
      <trkpt lat="59.4885878" lon="17.8766498">
        <ele>2.54065</ele>
        <time>2011-01-29T10:54:38Z</time>
      </trkpt>
      <trkpt lat="59.4887171" lon="17.8765969">
        <ele>4.46326</ele>
        <time>2011-01-29T10:54:42Z</time>
      </trkpt>
      <trkpt lat="59.4888504" lon="17.8764636">
        <ele>5.42456</ele>
        <time>2011-01-29T10:54:46Z</time>
      </trkpt>
      <trkpt lat="59.4890038" lon="17.8763994">
        <ele>6.86646</ele>
        <time>2011-01-29T10:54:50Z</time>
      </trkpt>
      <trkpt lat="59.4891435" lon="17.8764931">
        <ele>9.75061</ele>
        <time>2011-01-29T10:54:54Z</time>
      </trkpt>
      <trkpt lat="59.4892783" lon="17.8766576">
        <ele>11.6732</ele>
        <time>2011-01-29T10:54:58Z</time>
      </trkpt>
      <trkpt lat="59.4893146" lon="17.8767026">
        <ele>11.6732</ele>
        <time>2011-01-29T10:54:59Z</time>
      </trkpt>
      <trkpt lat="59.4894902" lon="17.8768589">
        <ele>6.38586</ele>
        <time>2011-01-29T10:55:04Z</time>
      </trkpt>
      <trkpt lat="59.4896891" lon="17.8769428">
        <ele>2.54065</ele>
        <time>2011-01-29T10:55:09Z</time>
      </trkpt>
      <trkpt lat="59.4897305" lon="17.8769517">
        <ele>1.57935</ele>
        <time>2011-01-29T10:55:10Z</time>
      </trkpt>
      <trkpt lat="59.4898979" lon="17.876973">
        <ele>0</ele>
        <time>2011-01-29T10:55:14Z</time>
      </trkpt>
      <trkpt lat="59.490123" lon="17.8768823">
        <ele>0.618042</ele>
        <time>2011-01-29T10:55:19Z</time>
      </trkpt>
      <trkpt lat="59.4902452" lon="17.8767875">
        <ele>0.618042</ele>
        <time>2011-01-29T10:55:22Z</time>
      </trkpt>
      <trkpt lat="59.4903605" lon="17.8765897">
        <ele>2.54065</ele>
        <time>2011-01-29T10:55:26Z</time>
      </trkpt>
      <trkpt lat="59.4904911" lon="17.8763648">
        <ele>2.54065</ele>
        <time>2011-01-29T10:55:30Z</time>
      </trkpt>
      <trkpt lat="59.4906115" lon="17.8763242">
        <ele>2.54065</ele>
        <time>2011-01-29T10:55:33Z</time>
      </trkpt>
      <trkpt lat="59.4907684" lon="17.8763804">
        <ele>1.09863</ele>
        <time>2011-01-29T10:55:37Z</time>
      </trkpt>
      <trkpt lat="59.490842" lon="17.8764451">
        <ele>0.618042</ele>
        <time>2011-01-29T10:55:39Z</time>
      </trkpt>
      <trkpt lat="59.4909951" lon="17.8765916">
        <ele>2.06006</ele>
        <time>2011-01-29T10:55:44Z</time>
      </trkpt>
      <trkpt lat="59.4911482" lon="17.8767337">
        <ele>1.57935</ele>
        <time>2011-01-29T10:55:48Z</time>
      </trkpt>
      <trkpt lat="59.4912412" lon="17.8767979">
        <ele>1.09863</ele>
        <time>2011-01-29T10:55:50Z</time>
      </trkpt>
      <trkpt lat="59.491374" lon="17.8768725">
        <ele>0</ele>
        <time>2011-01-29T10:55:53Z</time>
      </trkpt>
      <trkpt lat="59.4914605" lon="17.8769056">
        <ele>0</ele>
        <time>2011-01-29T10:55:55Z</time>
      </trkpt>
      <trkpt lat="59.4916708" lon="17.8769039">
        <ele>0</ele>
        <time>2011-01-29T10:56:00Z</time>
      </trkpt>
      <trkpt lat="59.4917105" lon="17.8769106">
        <ele>0</ele>
        <time>2011-01-29T10:56:01Z</time>
      </trkpt>
      <trkpt lat="59.4918239" lon="17.8769575">
        <ele>0</ele>
        <time>2011-01-29T10:56:04Z</time>
      </trkpt>
      <trkpt lat="59.4920203" lon="17.8770254">
        <ele>0</ele>
        <time>2011-01-29T10:56:09Z</time>
      </trkpt>
      <trkpt lat="59.492063" lon="17.8770448">
        <ele>0</ele>
        <time>2011-01-29T10:56:10Z</time>
      </trkpt>
      <trkpt lat="59.4923081" lon="17.8771699">
        <ele>0</ele>
        <time>2011-01-29T10:56:16Z</time>
      </trkpt>
      <trkpt lat="59.4925416" lon="17.8772144">
        <ele>0</ele>
        <time>2011-01-29T10:56:21Z</time>
      </trkpt>
      <trkpt lat="59.4927822" lon="17.8773575">
        <ele>0</ele>
        <time>2011-01-29T10:56:27Z</time>
      </trkpt>
      <trkpt lat="59.4928203" lon="17.8773862">
        <ele>0</ele>
        <time>2011-01-29T10:56:28Z</time>
      </trkpt>
      <trkpt lat="59.4929824" lon="17.8774781">
        <ele>0</ele>
        <time>2011-01-29T10:56:32Z</time>
      </trkpt>
      <trkpt lat="59.4930582" lon="17.877532">
        <ele>0</ele>
        <time>2011-01-29T10:56:34Z</time>
      </trkpt>
      <trkpt lat="59.4931856" lon="17.8776139">
        <ele>0</ele>
        <time>2011-01-29T10:56:37Z</time>
      </trkpt>
      <trkpt lat="59.4933762" lon="17.8777257">
        <ele>0</ele>
        <time>2011-01-29T10:56:41Z</time>
      </trkpt>
      <trkpt lat="59.4934737" lon="17.8777857">
        <ele>0</ele>
        <time>2011-01-29T10:56:43Z</time>
      </trkpt>
      <trkpt lat="59.4936683" lon="17.8779523">
        <ele>0</ele>
        <time>2011-01-29T10:56:47Z</time>
      </trkpt>
      <trkpt lat="59.4939072" lon="17.8780038">
        <ele>0</ele>
        <time>2011-01-29T10:56:52Z</time>
      </trkpt>
      <trkpt lat="59.4939521" lon="17.8779814">
        <ele>0</ele>
        <time>2011-01-29T10:56:53Z</time>
      </trkpt>
      <trkpt lat="59.4940419" lon="17.8779257">
        <ele>0</ele>
        <time>2011-01-29T10:56:55Z</time>
      </trkpt>
      <trkpt lat="59.4941134" lon="17.8778448">
        <ele>0</ele>
        <time>2011-01-29T10:56:57Z</time>
      </trkpt>
      <trkpt lat="59.4942518" lon="17.8776263">
        <ele>0</ele>
        <time>2011-01-29T10:57:02Z</time>
      </trkpt>
      <trkpt lat="59.4944154" lon="17.8774962">
        <ele>0</ele>
        <time>2011-01-29T10:57:07Z</time>
      </trkpt>
      <trkpt lat="59.4946071" lon="17.8774665">
        <ele>0.137451</ele>
        <time>2011-01-29T10:57:12Z</time>
      </trkpt>
      <trkpt lat="59.4947406" lon="17.877492">
        <ele>2.54065</ele>
        <time>2011-01-29T10:57:15Z</time>
      </trkpt>
      <trkpt lat="59.494874" lon="17.8775056">
        <ele>3.98267</ele>
        <time>2011-01-29T10:57:18Z</time>
      </trkpt>
      <trkpt lat="59.494983" lon="17.8774836">
        <ele>5.42456</ele>
        <time>2011-01-29T10:57:21Z</time>
      </trkpt>
      <trkpt lat="59.4951608" lon="17.8774288">
        <ele>9.75061</ele>
        <time>2011-01-29T10:57:26Z</time>
      </trkpt>
      <trkpt lat="59.4953198" lon="17.8773219">
        <ele>10.7118</ele>
        <time>2011-01-29T10:57:32Z</time>
      </trkpt>
      <trkpt lat="59.495344" lon="17.8772935">
        <ele>10.7118</ele>
        <time>2011-01-29T10:57:33Z</time>
      </trkpt>
      <trkpt lat="59.4954116" lon="17.8771332">
        <ele>10.7118</ele>
        <time>2011-01-29T10:57:37Z</time>
      </trkpt>
      <trkpt lat="59.4954723" lon="17.8768159">
        <ele>11.1925</ele>
        <time>2011-01-29T10:57:43Z</time>
      </trkpt>
      <trkpt lat="59.4954887" lon="17.8765648">
        <ele>13.1151</ele>
        <time>2011-01-29T10:57:48Z</time>
      </trkpt>
      <trkpt lat="59.4954597" lon="17.8763296">
        <ele>14.0764</ele>
        <time>2011-01-29T10:57:53Z</time>
      </trkpt>
      <trkpt lat="59.4954452" lon="17.8762417">
        <ele>14.0764</ele>
        <time>2011-01-29T10:57:55Z</time>
      </trkpt>
      <trkpt lat="59.4954033" lon="17.8760748">
        <ele>15.5184</ele>
        <time>2011-01-29T10:58:00Z</time>
      </trkpt>
      <trkpt lat="59.4953567" lon="17.8759344">
        <ele>15.999</ele>
        <time>2011-01-29T10:58:04Z</time>
      </trkpt>
      <trkpt lat="59.4953221" lon="17.875872">
        <ele>15.5184</ele>
        <time>2011-01-29T10:58:05Z</time>
      </trkpt>
      <trkpt lat="59.4950052" lon="17.8754942">
        <ele>11.1925</ele>
        <time>2011-01-29T10:58:10Z</time>
      </trkpt>
      <trkpt lat="59.4948122" lon="17.875377">
        <ele>9.75061</ele>
        <time>2011-01-29T10:58:13Z</time>
      </trkpt>
      <trkpt lat="59.4945812" lon="17.8753146">
        <ele>9.2699</ele>
        <time>2011-01-29T10:58:18Z</time>
      </trkpt>
      <trkpt lat="59.4945484" lon="17.8752999">
        <ele>9.2699</ele>
        <time>2011-01-29T10:58:19Z</time>
      </trkpt>
      <trkpt lat="59.4944005" lon="17.8753071">
        <ele>7.34717</ele>
        <time>2011-01-29T10:58:24Z</time>
      </trkpt>
      <trkpt lat="59.4943389" lon="17.8753295">
        <ele>5.90527</ele>
        <time>2011-01-29T10:58:26Z</time>
      </trkpt>
      <trkpt lat="59.4941764" lon="17.8753718">
        <ele>4.46326</ele>
        <time>2011-01-29T10:58:31Z</time>
      </trkpt>
      <trkpt lat="59.494045" lon="17.8754524">
        <ele>2.06006</ele>
        <time>2011-01-29T10:58:35Z</time>
      </trkpt>
      <trkpt lat="59.4939285" lon="17.8755731">
        <ele>0.618042</ele>
        <time>2011-01-29T10:58:39Z</time>
      </trkpt>
      <trkpt lat="59.4938325" lon="17.8756762">
        <ele>1.09863</ele>
        <time>2011-01-29T10:58:43Z</time>
      </trkpt>
      <trkpt lat="59.4936799" lon="17.8758318">
        <ele>1.09863</ele>
        <time>2011-01-29T10:58:49Z</time>
      </trkpt>
      <trkpt lat="59.4935612" lon="17.875982">
        <ele>2.54065</ele>
        <time>2011-01-29T10:58:54Z</time>
      </trkpt>
      <trkpt lat="59.4934522" lon="17.8761084">
        <ele>3.98267</ele>
        <time>2011-01-29T10:58:59Z</time>
      </trkpt>
      <trkpt lat="59.493297" lon="17.8762341">
        <ele>2.54065</ele>
        <time>2011-01-29T10:59:05Z</time>
      </trkpt>
      <trkpt lat="59.4931285" lon="17.8762701">
        <ele>1.57935</ele>
        <time>2011-01-29T10:59:11Z</time>
      </trkpt>
      <trkpt lat="59.493023" lon="17.8762748">
        <ele>2.06006</ele>
        <time>2011-01-29T10:59:15Z</time>
      </trkpt>
      <trkpt lat="59.4929721" lon="17.876297">
        <ele>2.06006</ele>
        <time>2011-01-29T10:59:17Z</time>
      </trkpt>
      <trkpt lat="59.4928633" lon="17.8763374">
        <ele>2.54065</ele>
        <time>2011-01-29T10:59:21Z</time>
      </trkpt>
      <trkpt lat="59.4927276" lon="17.8764058">
        <ele>5.90527</ele>
        <time>2011-01-29T10:59:26Z</time>
      </trkpt>
      <trkpt lat="59.4925903" lon="17.8764833">
        <ele>7.82788</ele>
        <time>2011-01-29T10:59:30Z</time>
      </trkpt>
      <trkpt lat="59.4924421" lon="17.8765875">
        <ele>9.2699</ele>
        <time>2011-01-29T10:59:34Z</time>
      </trkpt>
      <trkpt lat="59.4923082" lon="17.8767153">
        <ele>10.7118</ele>
        <time>2011-01-29T10:59:38Z</time>
      </trkpt>
      <trkpt lat="59.4921785" lon="17.8768581">
        <ele>11.6732</ele>
        <time>2011-01-29T10:59:42Z</time>
      </trkpt>
      <trkpt lat="59.4920563" lon="17.8770166">
        <ele>12.1538</ele>
        <time>2011-01-29T10:59:46Z</time>
      </trkpt>
      <trkpt lat="59.4919332" lon="17.8771092">
        <ele>12.1538</ele>
        <time>2011-01-29T10:59:50Z</time>
      </trkpt>
      <trkpt lat="59.491818" lon="17.8771216">
        <ele>12.1538</ele>
        <time>2011-01-29T10:59:54Z</time>
      </trkpt>
      <trkpt lat="59.4916898" lon="17.8771284">
        <ele>9.75061</ele>
        <time>2011-01-29T10:59:58Z</time>
      </trkpt>
      <trkpt lat="59.491539" lon="17.8771052">
        <ele>7.34717</ele>
        <time>2011-01-29T11:00:02Z</time>
      </trkpt>
      <trkpt lat="59.4914048" lon="17.8770456">
        <ele>5.42456</ele>
        <time>2011-01-29T11:00:06Z</time>
      </trkpt>
      <trkpt lat="59.4912814" lon="17.8769802">
        <ele>4.46326</ele>
        <time>2011-01-29T11:00:10Z</time>
      </trkpt>
      <trkpt lat="59.4911607" lon="17.8768909">
        <ele>4.46326</ele>
        <time>2011-01-29T11:00:14Z</time>
      </trkpt>
      <trkpt lat="59.4910604" lon="17.8767635">
        <ele>5.90527</ele>
        <time>2011-01-29T11:00:18Z</time>
      </trkpt>
      <trkpt lat="59.4909359" lon="17.8766651">
        <ele>5.90527</ele>
        <time>2011-01-29T11:00:23Z</time>
      </trkpt>
      <trkpt lat="59.4907975" lon="17.8765369">
        <ele>8.30859</ele>
        <time>2011-01-29T11:00:28Z</time>
      </trkpt>
      <trkpt lat="59.4906946" lon="17.8764902">
        <ele>9.75061</ele>
        <time>2011-01-29T11:00:31Z</time>
      </trkpt>
      <trkpt lat="59.490556" lon="17.8764539">
        <ele>9.75061</ele>
        <time>2011-01-29T11:00:35Z</time>
      </trkpt>
      <trkpt lat="59.4904045" lon="17.8764115">
        <ele>11.1925</ele>
        <time>2011-01-29T11:00:39Z</time>
      </trkpt>
      <trkpt lat="59.4902546" lon="17.8764458">
        <ele>11.1925</ele>
        <time>2011-01-29T11:00:43Z</time>
      </trkpt>
      <trkpt lat="59.4901285" lon="17.8765016">
        <ele>12.1538</ele>
        <time>2011-01-29T11:00:47Z</time>
      </trkpt>
      <trkpt lat="59.4899765" lon="17.8765998">
        <ele>11.6732</ele>
        <time>2011-01-29T11:00:52Z</time>
      </trkpt>
      <trkpt lat="59.4898538" lon="17.8766341">
        <ele>11.1925</ele>
        <time>2011-01-29T11:00:56Z</time>
      </trkpt>
      <trkpt lat="59.4897513" lon="17.87656">
        <ele>11.1925</ele>
        <time>2011-01-29T11:01:00Z</time>
      </trkpt>
      <trkpt lat="59.4896674" lon="17.876428">
        <ele>10.7118</ele>
        <time>2011-01-29T11:01:04Z</time>
      </trkpt>
      <trkpt lat="59.4895918" lon="17.8762795">
        <ele>10.7118</ele>
        <time>2011-01-29T11:01:08Z</time>
      </trkpt>
      <trkpt lat="59.4895467" lon="17.8761996">
        <ele>10.2312</ele>
        <time>2011-01-29T11:01:10Z</time>
      </trkpt>
      <trkpt lat="59.4894875" lon="17.876059">
        <ele>9.75061</ele>
        <time>2011-01-29T11:01:13Z</time>
      </trkpt>
      <trkpt lat="59.4894019" lon="17.8758813">
        <ele>9.75061</ele>
        <time>2011-01-29T11:01:17Z</time>
      </trkpt>
      <trkpt lat="59.4892597" lon="17.8755025">
        <ele>9.2699</ele>
        <time>2011-01-29T11:01:24Z</time>
      </trkpt>
      <trkpt lat="59.4891499" lon="17.8751688">
        <ele>8.78918</ele>
        <time>2011-01-29T11:01:31Z</time>
      </trkpt>
      <trkpt lat="59.4890835" lon="17.8748878">
        <ele>10.2312</ele>
        <time>2011-01-29T11:01:37Z</time>
      </trkpt>
      <trkpt lat="59.4890559" lon="17.8746818">
        <ele>10.7118</ele>
        <time>2011-01-29T11:01:41Z</time>
      </trkpt>
      <trkpt lat="59.4890393" lon="17.8744633">
        <ele>11.6732</ele>
        <time>2011-01-29T11:01:45Z</time>
      </trkpt>
      <trkpt lat="59.4890592" lon="17.8741597">
        <ele>13.1151</ele>
        <time>2011-01-29T11:01:51Z</time>
      </trkpt>
      <trkpt lat="59.4890726" lon="17.873924">
        <ele>15.0377</ele>
        <time>2011-01-29T11:01:56Z</time>
      </trkpt>
      <trkpt lat="59.4890894" lon="17.8736262">
        <ele>16.4797</ele>
        <time>2011-01-29T11:02:02Z</time>
      </trkpt>
      <trkpt lat="59.4891094" lon="17.8733791">
        <ele>18.4023</ele>
        <time>2011-01-29T11:02:07Z</time>
      </trkpt>
      <trkpt lat="59.4891323" lon="17.8732045">
        <ele>19.3638</ele>
        <time>2011-01-29T11:02:11Z</time>
      </trkpt>
      <trkpt lat="59.4891638" lon="17.8729936">
        <ele>19.8444</ele>
        <time>2011-01-29T11:02:16Z</time>
      </trkpt>
      <trkpt lat="59.4891937" lon="17.8727388">
        <ele>20.325</ele>
        <time>2011-01-29T11:02:22Z</time>
      </trkpt>
      <trkpt lat="59.489188" lon="17.872401">
        <ele>21.2864</ele>
        <time>2011-01-29T11:02:29Z</time>
      </trkpt>
      <trkpt lat="59.4891601" lon="17.8721627">
        <ele>22.2476</ele>
        <time>2011-01-29T11:02:35Z</time>
      </trkpt>
      <trkpt lat="59.4891042" lon="17.871874">
        <ele>23.209</ele>
        <time>2011-01-29T11:02:42Z</time>
      </trkpt>
      <trkpt lat="59.4890486" lon="17.8716282">
        <ele>24.1703</ele>
        <time>2011-01-29T11:02:47Z</time>
      </trkpt>
      <trkpt lat="59.4889834" lon="17.8713511">
        <ele>24.651</ele>
        <time>2011-01-29T11:02:53Z</time>
      </trkpt>
      <trkpt lat="59.4889422" lon="17.871159">
        <ele>25.6123</ele>
        <time>2011-01-29T11:02:57Z</time>
      </trkpt>
      <trkpt lat="59.4888991" lon="17.8708951">
        <ele>25.1317</ele>
        <time>2011-01-29T11:03:02Z</time>
      </trkpt>
      <trkpt lat="59.4888722" lon="17.8706492">
        <ele>26.0929</ele>
        <time>2011-01-29T11:03:07Z</time>
      </trkpt>
      <trkpt lat="59.4888656" lon="17.8704238">
        <ele>26.0929</ele>
        <time>2011-01-29T11:03:11Z</time>
      </trkpt>
      <trkpt lat="59.4888841" lon="17.8701466">
        <ele>26.5736</ele>
        <time>2011-01-29T11:03:16Z</time>
      </trkpt>
      <trkpt lat="59.4889492" lon="17.8698623">
        <ele>28.0155</ele>
        <time>2011-01-29T11:03:22Z</time>
      </trkpt>
      <trkpt lat="59.4890064" lon="17.8697253">
        <ele>27.5349</ele>
        <time>2011-01-29T11:03:26Z</time>
      </trkpt>
      <trkpt lat="59.4890748" lon="17.8695839">
        <ele>27.0543</ele>
        <time>2011-01-29T11:03:30Z</time>
      </trkpt>
      <trkpt lat="59.4891611" lon="17.8694689">
        <ele>26.0929</ele>
        <time>2011-01-29T11:03:34Z</time>
      </trkpt>
      <trkpt lat="59.4892541" lon="17.8693879">
        <ele>24.1703</ele>
        <time>2011-01-29T11:03:38Z</time>
      </trkpt>
      <trkpt lat="59.4893794" lon="17.8693182">
        <ele>22.2476</ele>
        <time>2011-01-29T11:03:43Z</time>
      </trkpt>
      <trkpt lat="59.4895087" lon="17.8692376">
        <ele>21.2864</ele>
        <time>2011-01-29T11:03:48Z</time>
      </trkpt>
      <trkpt lat="59.4896449" lon="17.8690929">
        <ele>20.325</ele>
        <time>2011-01-29T11:03:53Z</time>
      </trkpt>
      <trkpt lat="59.4897859" lon="17.8689573">
        <ele>18.8831</ele>
        <time>2011-01-29T11:03:58Z</time>
      </trkpt>
      <trkpt lat="59.4899068" lon="17.8688216">
        <ele>19.8444</ele>
        <time>2011-01-29T11:04:03Z</time>
      </trkpt>
      <trkpt lat="59.4900388" lon="17.8687056">
        <ele>21.2864</ele>
        <time>2011-01-29T11:04:08Z</time>
      </trkpt>
      <trkpt lat="59.4901356" lon="17.8686528">
        <ele>21.2864</ele>
        <time>2011-01-29T11:04:12Z</time>
      </trkpt>
      <trkpt lat="59.4902013" lon="17.868624">
        <ele>22.2476</ele>
        <time>2011-01-29T11:04:15Z</time>
      </trkpt>
      <trkpt lat="59.4903494" lon="17.8686207">
        <ele>23.6896</ele>
        <time>2011-01-29T11:04:21Z</time>
      </trkpt>
      <trkpt lat="59.4904818" lon="17.8686407">
        <ele>24.651</ele>
        <time>2011-01-29T11:04:26Z</time>
      </trkpt>
      <trkpt lat="59.4906039" lon="17.8686615">
        <ele>24.651</ele>
        <time>2011-01-29T11:04:30Z</time>
      </trkpt>
      <trkpt lat="59.4907219" lon="17.8686855">
        <ele>24.651</ele>
        <time>2011-01-29T11:04:35Z</time>
      </trkpt>
      <trkpt lat="59.4908589" lon="17.8687097">
        <ele>24.1703</ele>
        <time>2011-01-29T11:04:40Z</time>
      </trkpt>
      <trkpt lat="59.4910024" lon="17.8687827">
        <ele>23.6896</ele>
        <time>2011-01-29T11:04:46Z</time>
      </trkpt>
      <trkpt lat="59.4911483" lon="17.8688495">
        <ele>24.1703</ele>
        <time>2011-01-29T11:04:51Z</time>
      </trkpt>
      <trkpt lat="59.4912789" lon="17.8689717">
        <ele>25.1317</ele>
        <time>2011-01-29T11:04:56Z</time>
      </trkpt>
      <trkpt lat="59.4913928" lon="17.8690967">
        <ele>27.5349</ele>
        <time>2011-01-29T11:05:01Z</time>
      </trkpt>
      <trkpt lat="59.4914928" lon="17.8692023">
        <ele>29.9381</ele>
        <time>2011-01-29T11:05:06Z</time>
      </trkpt>
      <trkpt lat="59.4916374" lon="17.869338">
        <ele>31.8607</ele>
        <time>2011-01-29T11:05:13Z</time>
      </trkpt>
      <trkpt lat="59.4917468" lon="17.8694129">
        <ele>32.8223</ele>
        <time>2011-01-29T11:05:18Z</time>
      </trkpt>
      <trkpt lat="59.4919118" lon="17.8694563">
        <ele>34.2642</ele>
        <time>2011-01-29T11:05:23Z</time>
      </trkpt>
      <trkpt lat="59.4920678" lon="17.8693995">
        <ele>34.7449</ele>
        <time>2011-01-29T11:05:27Z</time>
      </trkpt>
      <trkpt lat="59.492189" lon="17.8692779">
        <ele>36.1868</ele>
        <time>2011-01-29T11:05:31Z</time>
      </trkpt>
      <trkpt lat="59.4922663" lon="17.8690763">
        <ele>36.6675</ele>
        <time>2011-01-29T11:05:36Z</time>
      </trkpt>
      <trkpt lat="59.4922511" lon="17.8688019">
        <ele>36.1868</ele>
        <time>2011-01-29T11:05:40Z</time>
      </trkpt>
      <trkpt lat="59.4922268" lon="17.8687418">
        <ele>35.7061</ele>
        <time>2011-01-29T11:05:41Z</time>
      </trkpt>
      <trkpt lat="59.4920451" lon="17.868665">
        <ele>33.3029</ele>
        <time>2011-01-29T11:05:46Z</time>
      </trkpt>
      <trkpt lat="59.4918677" lon="17.868696">
        <ele>31.8607</ele>
        <time>2011-01-29T11:05:51Z</time>
      </trkpt>
      <trkpt lat="59.4916876" lon="17.8686287">
        <ele>29.9381</ele>
        <time>2011-01-29T11:05:55Z</time>
      </trkpt>
      <trkpt lat="59.491548" lon="17.8684631">
        <ele>26.5736</ele>
        <time>2011-01-29T11:05:58Z</time>
      </trkpt>
      <trkpt lat="59.4912363" lon="17.868103">
        <ele>25.6123</ele>
        <time>2011-01-29T11:06:04Z</time>
      </trkpt>
      <trkpt lat="59.4911349" lon="17.8679426">
        <ele>25.1317</ele>
        <time>2011-01-29T11:06:06Z</time>
      </trkpt>
      <trkpt lat="59.4910305" lon="17.8677887">
        <ele>24.651</ele>
        <time>2011-01-29T11:06:08Z</time>
      </trkpt>
      <trkpt lat="59.4907847" lon="17.867626">
        <ele>24.651</ele>
        <time>2011-01-29T11:06:12Z</time>
      </trkpt>
      <trkpt lat="59.4906631" lon="17.8676238">
        <ele>25.1317</ele>
        <time>2011-01-29T11:06:14Z</time>
      </trkpt>
      <trkpt lat="59.4905042" lon="17.8677094">
        <ele>24.1703</ele>
        <time>2011-01-29T11:06:17Z</time>
      </trkpt>
      <trkpt lat="59.4904553" lon="17.8677575">
        <ele>23.209</ele>
        <time>2011-01-29T11:06:18Z</time>
      </trkpt>
      <trkpt lat="59.4903687" lon="17.8678545">
        <ele>22.2476</ele>
        <time>2011-01-29T11:06:20Z</time>
      </trkpt>
      <trkpt lat="59.4901764" lon="17.8680885">
        <ele>19.8444</ele>
        <time>2011-01-29T11:06:25Z</time>
      </trkpt>
      <trkpt lat="59.489974" lon="17.8681601">
        <ele>18.8831</ele>
        <time>2011-01-29T11:06:30Z</time>
      </trkpt>
      <trkpt lat="59.4898682" lon="17.8680813">
        <ele>18.8831</ele>
        <time>2011-01-29T11:06:33Z</time>
      </trkpt>
      <trkpt lat="59.4896797" lon="17.8678224">
        <ele>18.8831</ele>
        <time>2011-01-29T11:06:39Z</time>
      </trkpt>
      <trkpt lat="59.4895297" lon="17.8677016">
        <ele>17.9218</ele>
        <time>2011-01-29T11:06:43Z</time>
      </trkpt>
      <trkpt lat="59.4892942" lon="17.8676574">
        <ele>19.3638</ele>
        <time>2011-01-29T11:06:48Z</time>
      </trkpt>
      <trkpt lat="59.4891468" lon="17.8676659">
        <ele>19.3638</ele>
        <time>2011-01-29T11:06:51Z</time>
      </trkpt>
      <trkpt lat="59.4889157" lon="17.8678487">
        <ele>19.8444</ele>
        <time>2011-01-29T11:06:56Z</time>
      </trkpt>
      <trkpt lat="59.4887767" lon="17.8679171">
        <ele>19.8444</ele>
        <time>2011-01-29T11:06:59Z</time>
      </trkpt>
      <trkpt lat="59.4885957" lon="17.8678286">
        <ele>18.4023</ele>
        <time>2011-01-29T11:07:03Z</time>
      </trkpt>
      <trkpt lat="59.4883268" lon="17.8676527">
        <ele>18.4023</ele>
        <time>2011-01-29T11:07:09Z</time>
      </trkpt>
      <trkpt lat="59.4882813" lon="17.8676536">
        <ele>18.4023</ele>
        <time>2011-01-29T11:07:10Z</time>
      </trkpt>
      <trkpt lat="59.4880917" lon="17.8676357">
        <ele>14.0764</ele>
        <time>2011-01-29T11:07:15Z</time>
      </trkpt>
      <trkpt lat="59.4879392" lon="17.8677385">
        <ele>14.557</ele>
        <time>2011-01-29T11:07:19Z</time>
      </trkpt>
      <trkpt lat="59.487772" lon="17.8679828">
        <ele>14.557</ele>
        <time>2011-01-29T11:07:24Z</time>
      </trkpt>
      <trkpt lat="59.4876611" lon="17.8680612">
        <ele>14.557</ele>
        <time>2011-01-29T11:07:27Z</time>
      </trkpt>
      <trkpt lat="59.4875592" lon="17.8682273">
        <ele>14.557</ele>
        <time>2011-01-29T11:07:31Z</time>
      </trkpt>
      <trkpt lat="59.4875184" lon="17.8685735">
        <ele>14.557</ele>
        <time>2011-01-29T11:07:36Z</time>
      </trkpt>
      <trkpt lat="59.4874998" lon="17.8689293">
        <ele>15.0377</ele>
        <time>2011-01-29T11:07:41Z</time>
      </trkpt>
      <trkpt lat="59.487469" lon="17.8692197">
        <ele>16.4797</ele>
        <time>2011-01-29T11:07:45Z</time>
      </trkpt>
      <trkpt lat="59.4874269" lon="17.8695616">
        <ele>19.8444</ele>
        <time>2011-01-29T11:07:50Z</time>
      </trkpt>
      <trkpt lat="59.4873839" lon="17.8698685">
        <ele>22.2476</ele>
        <time>2011-01-29T11:07:55Z</time>
      </trkpt>
      <trkpt lat="59.4873524" lon="17.8702483">
        <ele>23.6896</ele>
        <time>2011-01-29T11:08:00Z</time>
      </trkpt>
      <trkpt lat="59.487325" lon="17.8706303">
        <ele>24.1703</ele>
        <time>2011-01-29T11:08:04Z</time>
      </trkpt>
      <trkpt lat="59.4874516" lon="17.8708088">
        <ele>24.1703</ele>
        <time>2011-01-29T11:08:08Z</time>
      </trkpt>
      <trkpt lat="59.4875936" lon="17.8707372">
        <ele>22.7283</ele>
        <time>2011-01-29T11:08:11Z</time>
      </trkpt>
      <trkpt lat="59.4877976" lon="17.8707196">
        <ele>20.325</ele>
        <time>2011-01-29T11:08:16Z</time>
      </trkpt>
      <trkpt lat="59.4879549" lon="17.8710423">
        <ele>15.5184</ele>
        <time>2011-01-29T11:08:21Z</time>
      </trkpt>
      <trkpt lat="59.4879999" lon="17.8714334">
        <ele>12.6344</ele>
        <time>2011-01-29T11:08:25Z</time>
      </trkpt>
      <trkpt lat="59.488073" lon="17.8718601">
        <ele>11.1925</ele>
        <time>2011-01-29T11:08:30Z</time>
      </trkpt>
      <trkpt lat="59.488124" lon="17.8721641">
        <ele>9.75061</ele>
        <time>2011-01-29T11:08:33Z</time>
      </trkpt>
      <trkpt lat="59.4881966" lon="17.8725606">
        <ele>9.2699</ele>
        <time>2011-01-29T11:08:37Z</time>
      </trkpt>
      <trkpt lat="59.4882478" lon="17.8729699">
        <ele>8.30859</ele>
        <time>2011-01-29T11:08:41Z</time>
      </trkpt>
      <trkpt lat="59.4882599" lon="17.8732618">
        <ele>7.82788</ele>
        <time>2011-01-29T11:08:44Z</time>
      </trkpt>
      <trkpt lat="59.4883442" lon="17.8735685">
        <ele>9.75061</ele>
        <time>2011-01-29T11:08:49Z</time>
      </trkpt>
      <trkpt lat="59.4884583" lon="17.8736023">
        <ele>8.78918</ele>
        <time>2011-01-29T11:08:52Z</time>
      </trkpt>
      <trkpt lat="59.4887287" lon="17.8737187">
        <ele>7.82788</ele>
        <time>2011-01-29T11:08:59Z</time>
      </trkpt>
      <trkpt lat="59.4888601" lon="17.8738422">
        <ele>6.38586</ele>
        <time>2011-01-29T11:09:03Z</time>
      </trkpt>
      <trkpt lat="59.4889525" lon="17.8739531">
        <ele>5.42456</ele>
        <time>2011-01-29T11:09:05Z</time>
      </trkpt>
      <trkpt lat="59.4890441" lon="17.8743378">
        <ele>5.90527</ele>
        <time>2011-01-29T11:09:09Z</time>
      </trkpt>
      <trkpt lat="59.4890776" lon="17.8747279">
        <ele>5.90527</ele>
        <time>2011-01-29T11:09:12Z</time>
      </trkpt>
      <trkpt lat="59.4890844" lon="17.8755562">
        <ele>5.42456</ele>
        <time>2011-01-29T11:09:19Z</time>
      </trkpt>
      <trkpt lat="59.4890735" lon="17.8757583">
        <ele>5.42456</ele>
        <time>2011-01-29T11:09:21Z</time>
      </trkpt>
      <trkpt lat="59.4890302" lon="17.8760911">
        <ele>5.90527</ele>
        <time>2011-01-29T11:09:24Z</time>
      </trkpt>
      <trkpt lat="59.4889168" lon="17.8763731">
        <ele>5.42456</ele>
        <time>2011-01-29T11:09:28Z</time>
      </trkpt>
      <trkpt lat="59.4887785" lon="17.8765648">
        <ele>5.42456</ele>
        <time>2011-01-29T11:09:32Z</time>
      </trkpt>
      <trkpt lat="59.4887024" lon="17.8766509">
        <ele>5.90527</ele>
        <time>2011-01-29T11:09:34Z</time>
      </trkpt>
      <trkpt lat="59.488668" lon="17.8766851">
        <ele>5.90527</ele>
        <time>2011-01-29T11:09:35Z</time>
      </trkpt>
      <trkpt lat="59.4884997" lon="17.8767724">
        <ele>5.90527</ele>
        <time>2011-01-29T11:09:40Z</time>
      </trkpt>
      <trkpt lat="59.4883769" lon="17.877008">
        <ele>7.34717</ele>
        <time>2011-01-29T11:09:45Z</time>
      </trkpt>
      <trkpt lat="59.4883374" lon="17.8773263">
        <ele>7.82788</ele>
        <time>2011-01-29T11:09:49Z</time>
      </trkpt>
      <trkpt lat="59.4883307" lon="17.8775003">
        <ele>7.82788</ele>
        <time>2011-01-29T11:09:51Z</time>
      </trkpt>
      <trkpt lat="59.4883393" lon="17.8777655">
        <ele>8.30859</ele>
        <time>2011-01-29T11:09:54Z</time>
      </trkpt>
      <trkpt lat="59.4884199" lon="17.8781623">
        <ele>8.78918</ele>
        <time>2011-01-29T11:09:59Z</time>
      </trkpt>
      <trkpt lat="59.4885634" lon="17.878382">
        <ele>9.2699</ele>
        <time>2011-01-29T11:10:03Z</time>
      </trkpt>
      <trkpt lat="59.4886421" lon="17.8784624">
        <ele>8.78918</ele>
        <time>2011-01-29T11:10:05Z</time>
      </trkpt>
      <trkpt lat="59.4887593" lon="17.878555">
        <ele>9.2699</ele>
        <time>2011-01-29T11:10:08Z</time>
      </trkpt>
      <trkpt lat="59.4888903" lon="17.8788253">
        <ele>9.2699</ele>
        <time>2011-01-29T11:10:13Z</time>
      </trkpt>
      <trkpt lat="59.4888897" lon="17.879028">
        <ele>9.75061</ele>
        <time>2011-01-29T11:10:16Z</time>
      </trkpt>
      <trkpt lat="59.4887449" lon="17.8792248">
        <ele>8.30859</ele>
        <time>2011-01-29T11:10:22Z</time>
      </trkpt>
      <trkpt lat="59.4887156" lon="17.8792346">
        <ele>8.30859</ele>
        <time>2011-01-29T11:10:23Z</time>
      </trkpt>
      <trkpt lat="59.4885234" lon="17.8793355">
        <ele>5.90527</ele>
        <time>2011-01-29T11:10:29Z</time>
      </trkpt>
      <trkpt lat="59.488362" lon="17.8794935">
        <ele>4.94385</ele>
        <time>2011-01-29T11:10:34Z</time>
      </trkpt>
      <trkpt lat="59.4882631" lon="17.8796895">
        <ele>4.94385</ele>
        <time>2011-01-29T11:10:38Z</time>
      </trkpt>
      <trkpt lat="59.4881882" lon="17.8799655">
        <ele>3.98267</ele>
        <time>2011-01-29T11:10:42Z</time>
      </trkpt>
      <trkpt lat="59.4880972" lon="17.8802866">
        <ele>3.02124</ele>
        <time>2011-01-29T11:10:47Z</time>
      </trkpt>
      <trkpt lat="59.4880248" lon="17.8805213">
        <ele>3.50195</ele>
        <time>2011-01-29T11:10:51Z</time>
      </trkpt>
      <trkpt lat="59.4879434" lon="17.8807234">
        <ele>4.94385</ele>
        <time>2011-01-29T11:10:55Z</time>
      </trkpt>
      <trkpt lat="59.4878847" lon="17.8809306">
        <ele>6.86646</ele>
        <time>2011-01-29T11:10:59Z</time>
      </trkpt>
      <trkpt lat="59.4877848" lon="17.8811948">
        <ele>8.78918</ele>
        <time>2011-01-29T11:11:04Z</time>
      </trkpt>
      <trkpt lat="59.4876647" lon="17.8813419">
        <ele>9.2699</ele>
        <time>2011-01-29T11:11:08Z</time>
      </trkpt>
      <trkpt lat="59.487542" lon="17.8814505">
        <ele>7.34717</ele>
        <time>2011-01-29T11:11:12Z</time>
      </trkpt>
      <trkpt lat="59.4874315" lon="17.8814951">
        <ele>4.46326</ele>
        <time>2011-01-29T11:11:15Z</time>
      </trkpt>
      <trkpt lat="59.487261" lon="17.8815062">
        <ele>2.54065</ele>
        <time>2011-01-29T11:11:19Z</time>
      </trkpt>
      <trkpt lat="59.4871343" lon="17.8814164">
        <ele>2.06006</ele>
        <time>2011-01-29T11:11:23Z</time>
      </trkpt>
      <trkpt lat="59.4870018" lon="17.881246">
        <ele>2.06006</ele>
        <time>2011-01-29T11:11:28Z</time>
      </trkpt>
      <trkpt lat="59.4868764" lon="17.8811118">
        <ele>1.57935</ele>
        <time>2011-01-29T11:11:32Z</time>
      </trkpt>
      <trkpt lat="59.4867347" lon="17.8809589">
        <ele>2.54065</ele>
        <time>2011-01-29T11:11:37Z</time>
      </trkpt>
      <trkpt lat="59.4865588" lon="17.8808496">
        <ele>2.54065</ele>
        <time>2011-01-29T11:11:43Z</time>
      </trkpt>
      <trkpt lat="59.4864016" lon="17.880755">
        <ele>1.57935</ele>
        <time>2011-01-29T11:11:48Z</time>
      </trkpt>
      <trkpt lat="59.4862297" lon="17.8807138">
        <ele>2.54065</ele>
        <time>2011-01-29T11:11:54Z</time>
      </trkpt>
      <trkpt lat="59.4860677" lon="17.8807486">
        <ele>4.94385</ele>
        <time>2011-01-29T11:11:59Z</time>
      </trkpt>
      <trkpt lat="59.4859299" lon="17.8808661">
        <ele>5.90527</ele>
        <time>2011-01-29T11:12:04Z</time>
      </trkpt>
      <trkpt lat="59.4858367" lon="17.8810637">
        <ele>7.34717</ele>
        <time>2011-01-29T11:12:09Z</time>
      </trkpt>
      <trkpt lat="59.4857724" lon="17.8813463">
        <ele>6.86646</ele>
        <time>2011-01-29T11:12:14Z</time>
      </trkpt>
      <trkpt lat="59.4857336" lon="17.8817092">
        <ele>6.38586</ele>
        <time>2011-01-29T11:12:18Z</time>
      </trkpt>
      <trkpt lat="59.4857512" lon="17.882063">
        <ele>7.82788</ele>
        <time>2011-01-29T11:12:22Z</time>
      </trkpt>
      <trkpt lat="59.4857572" lon="17.8821551">
        <ele>8.30859</ele>
        <time>2011-01-29T11:12:23Z</time>
      </trkpt>
      <trkpt lat="59.4857186" lon="17.8825085">
        <ele>9.2699</ele>
        <time>2011-01-29T11:12:27Z</time>
      </trkpt>
      <trkpt lat="59.4856118" lon="17.8829254">
        <ele>9.2699</ele>
        <time>2011-01-29T11:12:32Z</time>
      </trkpt>
      <trkpt lat="59.4855617" lon="17.8831985">
        <ele>9.75061</ele>
        <time>2011-01-29T11:12:35Z</time>
      </trkpt>
      <trkpt lat="59.4855427" lon="17.8833683">
        <ele>9.75061</ele>
        <time>2011-01-29T11:12:37Z</time>
      </trkpt>
      <trkpt lat="59.4855213" lon="17.8836351">
        <ele>9.75061</ele>
        <time>2011-01-29T11:12:40Z</time>
      </trkpt>
      <trkpt lat="59.4854433" lon="17.8840468">
        <ele>8.78918</ele>
        <time>2011-01-29T11:12:45Z</time>
      </trkpt>
      <trkpt lat="59.4852933" lon="17.884169">
        <ele>6.38586</ele>
        <time>2011-01-29T11:12:48Z</time>
      </trkpt>
      <trkpt lat="59.4852382" lon="17.884195">
        <ele>5.42456</ele>
        <time>2011-01-29T11:12:49Z</time>
      </trkpt>
      <trkpt lat="59.4850963" lon="17.8842728">
        <ele>3.02124</ele>
        <time>2011-01-29T11:12:52Z</time>
      </trkpt>
      <trkpt lat="59.4848649" lon="17.8845148">
        <ele>0.618042</ele>
        <time>2011-01-29T11:12:57Z</time>
      </trkpt>
      <trkpt lat="59.4846555" lon="17.8846778">
        <ele>0.618042</ele>
        <time>2011-01-29T11:13:02Z</time>
      </trkpt>
      <trkpt lat="59.4846178" lon="17.8846908">
        <ele>0.618042</ele>
        <time>2011-01-29T11:13:03Z</time>
      </trkpt>
      <trkpt lat="59.4844003" lon="17.8847469">
        <ele>1.09863</ele>
        <time>2011-01-29T11:13:08Z</time>
      </trkpt>
      <trkpt lat="59.4842651" lon="17.8847714">
        <ele>1.57935</ele>
        <time>2011-01-29T11:13:11Z</time>
      </trkpt>
      <trkpt lat="59.484148" lon="17.8847777">
        <ele>1.57935</ele>
        <time>2011-01-29T11:13:14Z</time>
      </trkpt>
      <trkpt lat="59.4840282" lon="17.8848726">
        <ele>2.54065</ele>
        <time>2011-01-29T11:13:17Z</time>
      </trkpt>
      <trkpt lat="59.4838769" lon="17.8850978">
        <ele>3.02124</ele>
        <time>2011-01-29T11:13:21Z</time>
      </trkpt>
      <trkpt lat="59.4837071" lon="17.8854285">
        <ele>3.02124</ele>
        <time>2011-01-29T11:13:25Z</time>
      </trkpt>
      <trkpt lat="59.4836614" lon="17.8855321">
        <ele>3.02124</ele>
        <time>2011-01-29T11:13:26Z</time>
      </trkpt>
      <trkpt lat="59.4834853" lon="17.8859261">
        <ele>3.02124</ele>
        <time>2011-01-29T11:13:30Z</time>
      </trkpt>
      <trkpt lat="59.4832787" lon="17.8863485">
        <ele>3.02124</ele>
        <time>2011-01-29T11:13:35Z</time>
      </trkpt>
      <trkpt lat="59.4831119" lon="17.8867882">
        <ele>2.06006</ele>
        <time>2011-01-29T11:13:41Z</time>
      </trkpt>
      <trkpt lat="59.4830812" lon="17.8868639">
        <ele>2.54065</ele>
        <time>2011-01-29T11:13:42Z</time>
      </trkpt>
      <trkpt lat="59.4829492" lon="17.8871053">
        <ele>1.57935</ele>
        <time>2011-01-29T11:13:46Z</time>
      </trkpt>
      <trkpt lat="59.4827658" lon="17.8871665">
        <ele>0.618042</ele>
        <time>2011-01-29T11:13:50Z</time>
      </trkpt>
      <trkpt lat="59.4826949" lon="17.8871085">
        <ele>0.137451</ele>
        <time>2011-01-29T11:13:52Z</time>
      </trkpt>
      <trkpt lat="59.482613" lon="17.8868355">
        <ele>0</ele>
        <time>2011-01-29T11:13:57Z</time>
      </trkpt>
      <trkpt lat="59.482608" lon="17.8867054">
        <ele>1.09863</ele>
        <time>2011-01-29T11:13:59Z</time>
      </trkpt>
      <trkpt lat="59.4826369" lon="17.8864058">
        <ele>3.02124</ele>
        <time>2011-01-29T11:14:04Z</time>
      </trkpt>
      <trkpt lat="59.4826603" lon="17.8861283">
        <ele>4.94385</ele>
        <time>2011-01-29T11:14:09Z</time>
      </trkpt>
      <trkpt lat="59.4826611" lon="17.885833">
        <ele>7.34717</ele>
        <time>2011-01-29T11:14:14Z</time>
      </trkpt>
      <trkpt lat="59.4826448" lon="17.8855943">
        <ele>7.34717</ele>
        <time>2011-01-29T11:14:18Z</time>
      </trkpt>
      <trkpt lat="59.4826258" lon="17.8853357">
        <ele>7.82788</ele>
        <time>2011-01-29T11:14:23Z</time>
      </trkpt>
      <trkpt lat="59.4826192" lon="17.8849874">
        <ele>7.82788</ele>
        <time>2011-01-29T11:14:29Z</time>
      </trkpt>
      <trkpt lat="59.4826094" lon="17.8847772">
        <ele>8.30859</ele>
        <time>2011-01-29T11:14:33Z</time>
      </trkpt>
      <trkpt lat="59.4825794" lon="17.8844485">
        <ele>9.2699</ele>
        <time>2011-01-29T11:14:40Z</time>
      </trkpt>
      <trkpt lat="59.482578" lon="17.8843303">
        <ele>10.7118</ele>
        <time>2011-01-29T11:14:43Z</time>
      </trkpt>
      <trkpt lat="59.4825909" lon="17.8841724">
        <ele>12.6344</ele>
        <time>2011-01-29T11:14:47Z</time>
      </trkpt>
      <trkpt lat="59.4826416" lon="17.8839449">
        <ele>13.5958</ele>
        <time>2011-01-29T11:14:53Z</time>
      </trkpt>
      <trkpt lat="59.4827022" lon="17.8837636">
        <ele>14.0764</ele>
        <time>2011-01-29T11:14:59Z</time>
      </trkpt>
      <trkpt lat="59.4827777" lon="17.8835693">
        <ele>15.999</ele>
        <time>2011-01-29T11:15:04Z</time>
      </trkpt>
      <trkpt lat="59.482802" lon="17.8835236">
        <ele>16.4797</ele>
        <time>2011-01-29T11:15:06Z</time>
      </trkpt>
      <trkpt lat="59.4828508" lon="17.8833744">
        <ele>15.999</ele>
        <time>2011-01-29T11:15:11Z</time>
      </trkpt>
      <trkpt lat="59.4828507" lon="17.8832026">
        <ele>14.557</ele>
        <time>2011-01-29T11:15:14Z</time>
      </trkpt>
      <trkpt lat="59.4828632" lon="17.8829483">
        <ele>13.5958</ele>
        <time>2011-01-29T11:15:20Z</time>
      </trkpt>
      <trkpt lat="59.4829045" lon="17.882787">
        <ele>12.6344</ele>
        <time>2011-01-29T11:15:25Z</time>
      </trkpt>
      <trkpt lat="59.4829193" lon="17.8827421">
        <ele>13.5958</ele>
        <time>2011-01-29T11:15:29Z</time>
      </trkpt>
      <trkpt lat="59.4829253" lon="17.8827073">
        <ele>13.5958</ele>
        <time>2011-01-29T11:15:31Z</time>
      </trkpt>
      <trkpt lat="59.4829601" lon="17.8825218">
        <ele>13.1151</ele>
        <time>2011-01-29T11:15:36Z</time>
      </trkpt>
      <trkpt lat="59.4829636" lon="17.8823866">
        <ele>13.1151</ele>
        <time>2011-01-29T11:15:40Z</time>
      </trkpt>
      <trkpt lat="59.4829446" lon="17.8822763">
        <ele>13.1151</ele>
        <time>2011-01-29T11:15:43Z</time>
      </trkpt>
      <trkpt lat="59.4828897" lon="17.8821115">
        <ele>13.5958</ele>
        <time>2011-01-29T11:15:48Z</time>
      </trkpt>
      <trkpt lat="59.4828295" lon="17.8819232">
        <ele>13.1151</ele>
        <time>2011-01-29T11:15:52Z</time>
      </trkpt>
      <trkpt lat="59.4827996" lon="17.881668">
        <ele>12.6344</ele>
        <time>2011-01-29T11:15:56Z</time>
      </trkpt>
      <trkpt lat="59.482825" lon="17.8814183">
        <ele>12.1538</ele>
        <time>2011-01-29T11:16:00Z</time>
      </trkpt>
      <trkpt lat="59.4828567" lon="17.8812651">
        <ele>12.1538</ele>
        <time>2011-01-29T11:16:03Z</time>
      </trkpt>
      <trkpt lat="59.4829168" lon="17.8810262">
        <ele>11.6732</ele>
        <time>2011-01-29T11:16:08Z</time>
      </trkpt>
      <trkpt lat="59.4829524" lon="17.8808135">
        <ele>13.1151</ele>
        <time>2011-01-29T11:16:14Z</time>
      </trkpt>
      <trkpt lat="59.4829955" lon="17.8805871">
        <ele>14.0764</ele>
        <time>2011-01-29T11:16:20Z</time>
      </trkpt>
      <trkpt lat="59.4830575" lon="17.880309">
        <ele>15.999</ele>
        <time>2011-01-29T11:16:26Z</time>
      </trkpt>
      <trkpt lat="59.4831126" lon="17.8800312">
        <ele>19.3638</ele>
        <time>2011-01-29T11:16:32Z</time>
      </trkpt>
      <trkpt lat="59.4831397" lon="17.8798336">
        <ele>21.767</ele>
        <time>2011-01-29T11:16:36Z</time>
      </trkpt>
      <trkpt lat="59.4831767" lon="17.8796123">
        <ele>22.7283</ele>
        <time>2011-01-29T11:16:41Z</time>
      </trkpt>
      <trkpt lat="59.4832046" lon="17.8793732">
        <ele>22.7283</ele>
        <time>2011-01-29T11:16:46Z</time>
      </trkpt>
      <trkpt lat="59.4832498" lon="17.8790885">
        <ele>22.7283</ele>
        <time>2011-01-29T11:16:51Z</time>
      </trkpt>
      <trkpt lat="59.4833067" lon="17.8788762">
        <ele>21.767</ele>
        <time>2011-01-29T11:16:55Z</time>
      </trkpt>
      <trkpt lat="59.483399" lon="17.8786454">
        <ele>19.8444</ele>
        <time>2011-01-29T11:16:59Z</time>
      </trkpt>
      <trkpt lat="59.4835187" lon="17.8783773">
        <ele>18.4023</ele>
        <time>2011-01-29T11:17:03Z</time>
      </trkpt>
      <trkpt lat="59.4835741" lon="17.8782623">
        <ele>17.4412</ele>
        <time>2011-01-29T11:17:05Z</time>
      </trkpt>
      <trkpt lat="59.483628" lon="17.8781375">
        <ele>16.4797</ele>
        <time>2011-01-29T11:17:07Z</time>
      </trkpt>
      <trkpt lat="59.4837595" lon="17.8778375">
        <ele>14.557</ele>
        <time>2011-01-29T11:17:12Z</time>
      </trkpt>
      <trkpt lat="59.4838511" lon="17.8776184">
        <ele>14.0764</ele>
        <time>2011-01-29T11:17:16Z</time>
      </trkpt>
      <trkpt lat="59.4838723" lon="17.8775542">
        <ele>14.0764</ele>
        <time>2011-01-29T11:17:17Z</time>
      </trkpt>
      <trkpt lat="59.4838148" lon="17.8773442">
        <ele>13.1151</ele>
        <time>2011-01-29T11:17:21Z</time>
      </trkpt>
      <trkpt lat="59.4837417" lon="17.8773678">
        <ele>12.6344</ele>
        <time>2011-01-29T11:17:23Z</time>
      </trkpt>
      <trkpt lat="59.4835756" lon="17.8774744">
        <ele>11.6732</ele>
        <time>2011-01-29T11:17:28Z</time>
      </trkpt>
      <trkpt lat="59.483448" lon="17.8774605">
        <ele>10.7118</ele>
        <time>2011-01-29T11:17:32Z</time>
      </trkpt>
      <trkpt lat="59.4833032" lon="17.8774405">
        <ele>8.78918</ele>
        <time>2011-01-29T11:17:37Z</time>
      </trkpt>
      <trkpt lat="59.483187" lon="17.8774592">
        <ele>8.78918</ele>
        <time>2011-01-29T11:17:41Z</time>
      </trkpt>
      <trkpt lat="59.4830719" lon="17.8775274">
        <ele>9.75061</ele>
        <time>2011-01-29T11:17:45Z</time>
      </trkpt>
      <trkpt lat="59.4829856" lon="17.8776542">
        <ele>10.7118</ele>
        <time>2011-01-29T11:17:49Z</time>
      </trkpt>
      <trkpt lat="59.4829181" lon="17.877819">
        <ele>12.1538</ele>
        <time>2011-01-29T11:17:53Z</time>
      </trkpt>
      <trkpt lat="59.4828792" lon="17.8780045">
        <ele>13.5958</ele>
        <time>2011-01-29T11:17:57Z</time>
      </trkpt>
      <trkpt lat="59.4828558" lon="17.8782847">
        <ele>15.5184</ele>
        <time>2011-01-29T11:18:02Z</time>
      </trkpt>
      <trkpt lat="59.4828548" lon="17.8785876">
        <ele>17.4412</ele>
        <time>2011-01-29T11:18:07Z</time>
      </trkpt>
      <trkpt lat="59.482885" lon="17.8788509">
        <ele>20.325</ele>
        <time>2011-01-29T11:18:12Z</time>
      </trkpt>
      <trkpt lat="59.4829289" lon="17.8791163">
        <ele>23.209</ele>
        <time>2011-01-29T11:18:17Z</time>
      </trkpt>
      <trkpt lat="59.4829514" lon="17.8793227">
        <ele>23.6896</ele>
        <time>2011-01-29T11:18:21Z</time>
      </trkpt>
      <trkpt lat="59.4829643" lon="17.8795937">
        <ele>24.651</ele>
        <time>2011-01-29T11:18:26Z</time>
      </trkpt>
      <trkpt lat="59.4829524" lon="17.8798873">
        <ele>25.6123</ele>
        <time>2011-01-29T11:18:32Z</time>
      </trkpt>
      <trkpt lat="59.4829452" lon="17.8799464">
        <ele>25.6123</ele>
        <time>2011-01-29T11:18:33Z</time>
      </trkpt>
      <trkpt lat="59.4829151" lon="17.8802795">
        <ele>26.0929</ele>
        <time>2011-01-29T11:18:38Z</time>
      </trkpt>
      <trkpt lat="59.4828892" lon="17.8805462">
        <ele>24.651</ele>
        <time>2011-01-29T11:18:41Z</time>
      </trkpt>
      <trkpt lat="59.4828726" lon="17.8807592">
        <ele>23.6896</ele>
        <time>2011-01-29T11:18:43Z</time>
      </trkpt>
      <trkpt lat="59.4827971" lon="17.8814963">
        <ele>22.7283</ele>
        <time>2011-01-29T11:18:50Z</time>
      </trkpt>
      <trkpt lat="59.4827891" lon="17.8817665">
        <ele>21.767</ele>
        <time>2011-01-29T11:18:53Z</time>
      </trkpt>
      <trkpt lat="59.4827985" lon="17.8821861">
        <ele>20.325</ele>
        <time>2011-01-29T11:18:58Z</time>
      </trkpt>
      <trkpt lat="59.4827712" lon="17.8826023">
        <ele>17.9218</ele>
        <time>2011-01-29T11:19:02Z</time>
      </trkpt>
      <trkpt lat="59.4827591" lon="17.8827103">
        <ele>17.4412</ele>
        <time>2011-01-29T11:19:03Z</time>
      </trkpt>
      <trkpt lat="59.4826012" lon="17.8837385">
        <ele>14.557</ele>
        <time>2011-01-29T11:19:11Z</time>
      </trkpt>
      <trkpt lat="59.4825737" lon="17.8838677">
        <ele>14.557</ele>
        <time>2011-01-29T11:19:12Z</time>
      </trkpt>
      <trkpt lat="59.4823701" lon="17.8843392">
        <ele>11.1925</ele>
        <time>2011-01-29T11:19:16Z</time>
      </trkpt>
      <trkpt lat="59.4822558" lon="17.8845664">
        <ele>10.2312</ele>
        <time>2011-01-29T11:19:18Z</time>
      </trkpt>
      <trkpt lat="59.482122" lon="17.8849339">
        <ele>8.30859</ele>
        <time>2011-01-29T11:19:21Z</time>
      </trkpt>
      <trkpt lat="59.4820379" lon="17.8853944">
        <ele>5.42456</ele>
        <time>2011-01-29T11:19:25Z</time>
      </trkpt>
      <trkpt lat="59.4820003" lon="17.8858092">
        <ele>4.46326</ele>
        <time>2011-01-29T11:19:30Z</time>
      </trkpt>
      <trkpt lat="59.4819359" lon="17.8860906">
        <ele>5.42456</ele>
        <time>2011-01-29T11:19:35Z</time>
      </trkpt>
      <trkpt lat="59.4817592" lon="17.8863718">
        <ele>3.98267</ele>
        <time>2011-01-29T11:19:40Z</time>
      </trkpt>
      <trkpt lat="59.4816864" lon="17.8864769">
        <ele>3.50195</ele>
        <time>2011-01-29T11:19:42Z</time>
      </trkpt>
      <trkpt lat="59.4816095" lon="17.886581">
        <ele>3.50195</ele>
        <time>2011-01-29T11:19:44Z</time>
      </trkpt>
      <trkpt lat="59.4815456" lon="17.8866487">
        <ele>2.54065</ele>
        <time>2011-01-29T11:19:46Z</time>
      </trkpt>
      <trkpt lat="59.4814873" lon="17.886723">
        <ele>2.06006</ele>
        <time>2011-01-29T11:19:48Z</time>
      </trkpt>
      <trkpt lat="59.4812943" lon="17.8869004">
        <ele>0.137451</ele>
        <time>2011-01-29T11:19:54Z</time>
      </trkpt>
      <trkpt lat="59.4811487" lon="17.8869815">
        <ele>0</ele>
        <time>2011-01-29T11:19:59Z</time>
      </trkpt>
      <trkpt lat="59.4810141" lon="17.8869742">
        <ele>0.137451</ele>
        <time>2011-01-29T11:20:04Z</time>
      </trkpt>
      <trkpt lat="59.4809425" lon="17.8869083">
        <ele>1.09863</ele>
        <time>2011-01-29T11:20:08Z</time>
      </trkpt>
      <trkpt lat="59.4808059" lon="17.8867339">
        <ele>1.09863</ele>
        <time>2011-01-29T11:20:14Z</time>
      </trkpt>
      <trkpt lat="59.4807487" lon="17.8864648">
        <ele>1.57935</ele>
        <time>2011-01-29T11:20:19Z</time>
      </trkpt>
      <trkpt lat="59.4807326" lon="17.8862387">
        <ele>2.06006</ele>
        <time>2011-01-29T11:20:23Z</time>
      </trkpt>
      <trkpt lat="59.4807259" lon="17.8859392">
        <ele>3.50195</ele>
        <time>2011-01-29T11:20:28Z</time>
      </trkpt>
      <trkpt lat="59.480727" lon="17.8858713">
        <ele>3.98267</ele>
        <time>2011-01-29T11:20:29Z</time>
      </trkpt>
      <trkpt lat="59.4807513" lon="17.8854735">
        <ele>5.90527</ele>
        <time>2011-01-29T11:20:35Z</time>
      </trkpt>
      <trkpt lat="59.480766" lon="17.8851839">
        <ele>6.86646</ele>
        <time>2011-01-29T11:20:39Z</time>
      </trkpt>
      <trkpt lat="59.4807497" lon="17.8849286">
        <ele>7.34717</ele>
        <time>2011-01-29T11:20:43Z</time>
      </trkpt>
      <trkpt lat="59.4807069" lon="17.8847175">
        <ele>7.34717</ele>
        <time>2011-01-29T11:20:47Z</time>
      </trkpt>
      <trkpt lat="59.4806457" lon="17.8845314">
        <ele>7.34717</ele>
        <time>2011-01-29T11:20:51Z</time>
      </trkpt>
      <trkpt lat="59.4805613" lon="17.8843671">
        <ele>7.82788</ele>
        <time>2011-01-29T11:20:55Z</time>
      </trkpt>
      <trkpt lat="59.4804613" lon="17.8841784">
        <ele>8.30859</ele>
        <time>2011-01-29T11:21:00Z</time>
      </trkpt>
      <trkpt lat="59.4803603" lon="17.88401">
        <ele>7.34717</ele>
        <time>2011-01-29T11:21:04Z</time>
      </trkpt>
      <trkpt lat="59.4802475" lon="17.8838417">
        <ele>7.82788</ele>
        <time>2011-01-29T11:21:08Z</time>
      </trkpt>
      <trkpt lat="59.4801591" lon="17.8837549">
        <ele>8.78918</ele>
        <time>2011-01-29T11:21:12Z</time>
      </trkpt>
      <trkpt lat="59.4800521" lon="17.883717">
        <ele>9.2699</ele>
        <time>2011-01-29T11:21:16Z</time>
      </trkpt>
      <trkpt lat="59.4799315" lon="17.8837039">
        <ele>9.2699</ele>
        <time>2011-01-29T11:21:20Z</time>
      </trkpt>
      <trkpt lat="59.4798044" lon="17.8837499">
        <ele>8.30859</ele>
        <time>2011-01-29T11:21:24Z</time>
      </trkpt>
      <trkpt lat="59.4797719" lon="17.8837706">
        <ele>7.82788</ele>
        <time>2011-01-29T11:21:25Z</time>
      </trkpt>
      <trkpt lat="59.4796093" lon="17.8838547">
        <ele>6.86646</ele>
        <time>2011-01-29T11:21:30Z</time>
      </trkpt>
      <trkpt lat="59.4794751" lon="17.8839262">
        <ele>6.38586</ele>
        <time>2011-01-29T11:21:35Z</time>
      </trkpt>
      <trkpt lat="59.4793554" lon="17.8840116">
        <ele>6.86646</ele>
        <time>2011-01-29T11:21:39Z</time>
      </trkpt>
      <trkpt lat="59.4792355" lon="17.8840749">
        <ele>6.86646</ele>
        <time>2011-01-29T11:21:43Z</time>
      </trkpt>
      <trkpt lat="59.4791041" lon="17.8841876">
        <ele>7.82788</ele>
        <time>2011-01-29T11:21:47Z</time>
      </trkpt>
      <trkpt lat="59.4789757" lon="17.8843755">
        <ele>9.2699</ele>
        <time>2011-01-29T11:21:53Z</time>
      </trkpt>
      <trkpt lat="59.4788824" lon="17.8845365">
        <ele>9.2699</ele>
        <time>2011-01-29T11:21:57Z</time>
      </trkpt>
      <trkpt lat="59.4787647" lon="17.8846678">
        <ele>7.34717</ele>
        <time>2011-01-29T11:22:01Z</time>
      </trkpt>
      <trkpt lat="59.4785829" lon="17.8847265">
        <ele>4.46326</ele>
        <time>2011-01-29T11:22:05Z</time>
      </trkpt>
      <trkpt lat="59.478436" lon="17.8847259">
        <ele>2.54065</ele>
        <time>2011-01-29T11:22:09Z</time>
      </trkpt>
      <trkpt lat="59.478265" lon="17.884825">
        <ele>1.09863</ele>
        <time>2011-01-29T11:22:14Z</time>
      </trkpt>
      <trkpt lat="59.4781508" lon="17.8849581">
        <ele>1.57935</ele>
        <time>2011-01-29T11:22:18Z</time>
      </trkpt>
      <trkpt lat="59.4780091" lon="17.8850941">
        <ele>1.57935</ele>
        <time>2011-01-29T11:22:22Z</time>
      </trkpt>
      <trkpt lat="59.4778987" lon="17.8852304">
        <ele>2.06006</ele>
        <time>2011-01-29T11:22:25Z</time>
      </trkpt>
      <trkpt lat="59.4778717" lon="17.8853407">
        <ele>2.54065</ele>
        <time>2011-01-29T11:22:27Z</time>
      </trkpt>
      <trkpt lat="59.4778608" lon="17.8854057">
        <ele>3.02124</ele>
        <time>2011-01-29T11:22:28Z</time>
      </trkpt>
      <trkpt lat="59.4778333" lon="17.8856403">
        <ele>4.94385</ele>
        <time>2011-01-29T11:22:32Z</time>
      </trkpt>
      <trkpt lat="59.4777826" lon="17.8858947">
        <ele>4.94385</ele>
        <time>2011-01-29T11:22:36Z</time>
      </trkpt>
      <trkpt lat="59.4777013" lon="17.8861029">
        <ele>5.90527</ele>
        <time>2011-01-29T11:22:40Z</time>
      </trkpt>
      <trkpt lat="59.4776773" lon="17.8861367">
        <ele>5.90527</ele>
        <time>2011-01-29T11:22:41Z</time>
      </trkpt>
      <trkpt lat="59.477519" lon="17.8862006">
        <ele>4.46326</ele>
        <time>2011-01-29T11:22:46Z</time>
      </trkpt>
      <trkpt lat="59.477362" lon="17.8862195">
        <ele>3.50195</ele>
        <time>2011-01-29T11:22:50Z</time>
      </trkpt>
      <trkpt lat="59.4771751" lon="17.8862987">
        <ele>3.02124</ele>
        <time>2011-01-29T11:22:55Z</time>
      </trkpt>
      <trkpt lat="59.4770756" lon="17.8863926">
        <ele>2.06006</ele>
        <time>2011-01-29T11:22:58Z</time>
      </trkpt>
      <trkpt lat="59.4769614" lon="17.8865601">
        <ele>1.09863</ele>
        <time>2011-01-29T11:23:02Z</time>
      </trkpt>
      <trkpt lat="59.4768719" lon="17.8867592">
        <ele>0.137451</ele>
        <time>2011-01-29T11:23:06Z</time>
      </trkpt>
      <trkpt lat="59.476792" lon="17.886953">
        <ele>0</ele>
        <time>2011-01-29T11:23:10Z</time>
      </trkpt>
      <trkpt lat="59.4767047" lon="17.8871589">
        <ele>0.137451</ele>
        <time>2011-01-29T11:23:14Z</time>
      </trkpt>
      <trkpt lat="59.476612" lon="17.8873523">
        <ele>0.137451</ele>
        <time>2011-01-29T11:23:18Z</time>
      </trkpt>
      <trkpt lat="59.4765038" lon="17.8875084">
        <ele>1.09863</ele>
        <time>2011-01-29T11:23:22Z</time>
      </trkpt>
      <trkpt lat="59.4764125" lon="17.8876336">
        <ele>1.57935</ele>
        <time>2011-01-29T11:23:25Z</time>
      </trkpt>
      <trkpt lat="59.4763551" lon="17.8879252">
        <ele>2.54065</ele>
        <time>2011-01-29T11:23:30Z</time>
      </trkpt>
      <trkpt lat="59.4763691" lon="17.8880977">
        <ele>3.98267</ele>
        <time>2011-01-29T11:23:33Z</time>
      </trkpt>
      <trkpt lat="59.4764341" lon="17.8883714">
        <ele>5.90527</ele>
        <time>2011-01-29T11:23:38Z</time>
      </trkpt>
      <trkpt lat="59.476567" lon="17.8886172">
        <ele>6.86646</ele>
        <time>2011-01-29T11:23:43Z</time>
      </trkpt>
      <trkpt lat="59.476732" lon="17.8886727">
        <ele>5.90527</ele>
        <time>2011-01-29T11:23:47Z</time>
      </trkpt>
      <trkpt lat="59.4768684" lon="17.8886627">
        <ele>4.94385</ele>
        <time>2011-01-29T11:23:51Z</time>
      </trkpt>
      <trkpt lat="59.4770006" lon="17.8886505">
        <ele>3.98267</ele>
        <time>2011-01-29T11:23:55Z</time>
      </trkpt>
      <trkpt lat="59.4771635" lon="17.8885886">
        <ele>2.54065</ele>
        <time>2011-01-29T11:24:01Z</time>
      </trkpt>
      <trkpt lat="59.4772833" lon="17.8885402">
        <ele>1.57935</ele>
        <time>2011-01-29T11:24:06Z</time>
      </trkpt>
      <trkpt lat="59.4774188" lon="17.8884695">
        <ele>1.09863</ele>
        <time>2011-01-29T11:24:11Z</time>
      </trkpt>
      <trkpt lat="59.4775468" lon="17.8884407">
        <ele>0.618042</ele>
        <time>2011-01-29T11:24:16Z</time>
      </trkpt>
      <trkpt lat="59.477649" lon="17.8884122">
        <ele>1.57935</ele>
        <time>2011-01-29T11:24:20Z</time>
      </trkpt>
      <trkpt lat="59.477796" lon="17.888378">
        <ele>2.54065</ele>
        <time>2011-01-29T11:24:26Z</time>
      </trkpt>
      <trkpt lat="59.4779373" lon="17.8883041">
        <ele>3.50195</ele>
        <time>2011-01-29T11:24:32Z</time>
      </trkpt>
      <trkpt lat="59.4780271" lon="17.888201">
        <ele>3.98267</ele>
        <time>2011-01-29T11:24:36Z</time>
      </trkpt>
      <trkpt lat="59.4780728" lon="17.887943">
        <ele>5.42456</ele>
        <time>2011-01-29T11:24:42Z</time>
      </trkpt>
      <trkpt lat="59.4780581" lon="17.887716">
        <ele>5.90527</ele>
        <time>2011-01-29T11:24:46Z</time>
      </trkpt>
      <trkpt lat="59.4780079" lon="17.8873879">
        <ele>4.94385</ele>
        <time>2011-01-29T11:24:51Z</time>
      </trkpt>
      <trkpt lat="59.4779531" lon="17.8870063">
        <ele>3.98267</ele>
        <time>2011-01-29T11:24:56Z</time>
      </trkpt>
      <trkpt lat="59.4779355" lon="17.8867365">
        <ele>2.54065</ele>
        <time>2011-01-29T11:25:00Z</time>
      </trkpt>
      <trkpt lat="59.4779524" lon="17.886476">
        <ele>1.57935</ele>
        <time>2011-01-29T11:25:04Z</time>
      </trkpt>
      <trkpt lat="59.4780081" lon="17.8862474">
        <ele>0.618042</ele>
        <time>2011-01-29T11:25:08Z</time>
      </trkpt>
      <trkpt lat="59.4781368" lon="17.8861355">
        <ele>0.618042</ele>
        <time>2011-01-29T11:25:13Z</time>
      </trkpt>
      <trkpt lat="59.4782649" lon="17.8861887">
        <ele>1.09863</ele>
        <time>2011-01-29T11:25:17Z</time>
      </trkpt>
      <trkpt lat="59.4784046" lon="17.8863734">
        <ele>1.57935</ele>
        <time>2011-01-29T11:25:22Z</time>
      </trkpt>
      <trkpt lat="59.4784929" lon="17.8866183">
        <ele>3.98267</ele>
        <time>2011-01-29T11:25:27Z</time>
      </trkpt>
      <trkpt lat="59.4785545" lon="17.8868343">
        <ele>4.94385</ele>
        <time>2011-01-29T11:25:31Z</time>
      </trkpt>
      <trkpt lat="59.478619" lon="17.8871492">
        <ele>6.38586</ele>
        <time>2011-01-29T11:25:36Z</time>
      </trkpt>
      <trkpt lat="59.4786843" lon="17.8874694">
        <ele>6.38586</ele>
        <time>2011-01-29T11:25:41Z</time>
      </trkpt>
      <trkpt lat="59.4786979" lon="17.8878539">
        <ele>9.2699</ele>
        <time>2011-01-29T11:25:47Z</time>
      </trkpt>
      <trkpt lat="59.4786498" lon="17.8880966">
        <ele>9.75061</ele>
        <time>2011-01-29T11:25:51Z</time>
      </trkpt>
      <trkpt lat="59.4786094" lon="17.8882993">
        <ele>11.1925</ele>
        <time>2011-01-29T11:25:55Z</time>
      </trkpt>
      <trkpt lat="59.4785187" lon="17.8884824">
        <ele>11.6732</ele>
        <time>2011-01-29T11:25:59Z</time>
      </trkpt>
      <trkpt lat="59.4783807" lon="17.8886551">
        <ele>10.7118</ele>
        <time>2011-01-29T11:26:03Z</time>
      </trkpt>
      <trkpt lat="59.4782562" lon="17.8887785">
        <ele>10.2312</ele>
        <time>2011-01-29T11:26:06Z</time>
      </trkpt>
      <trkpt lat="59.4781705" lon="17.8888376">
        <ele>9.2699</ele>
        <time>2011-01-29T11:26:08Z</time>
      </trkpt>
      <trkpt lat="59.4779731" lon="17.8889825">
        <ele>5.90527</ele>
        <time>2011-01-29T11:26:13Z</time>
      </trkpt>
      <trkpt lat="59.477936" lon="17.8890048">
        <ele>5.42456</ele>
        <time>2011-01-29T11:26:14Z</time>
      </trkpt>
      <trkpt lat="59.4778396" lon="17.8890778">
        <ele>4.46326</ele>
        <time>2011-01-29T11:26:17Z</time>
      </trkpt>
      <trkpt lat="59.4776739" lon="17.8892292">
        <ele>3.02124</ele>
        <time>2011-01-29T11:26:22Z</time>
      </trkpt>
      <trkpt lat="59.477494" lon="17.8893603">
        <ele>2.54065</ele>
        <time>2011-01-29T11:26:27Z</time>
      </trkpt>
      <trkpt lat="59.4773703" lon="17.8894674">
        <ele>2.54065</ele>
        <time>2011-01-29T11:26:31Z</time>
      </trkpt>
      <trkpt lat="59.4772227" lon="17.8895591">
        <ele>2.06006</ele>
        <time>2011-01-29T11:26:35Z</time>
      </trkpt>
      <trkpt lat="59.4770911" lon="17.889656">
        <ele>1.09863</ele>
        <time>2011-01-29T11:26:38Z</time>
      </trkpt>
      <trkpt lat="59.4769015" lon="17.8897061">
        <ele>0</ele>
        <time>2011-01-29T11:26:43Z</time>
      </trkpt>
      <trkpt lat="59.4766922" lon="17.8897304">
        <ele>0</ele>
        <time>2011-01-29T11:26:49Z</time>
      </trkpt>
      <trkpt lat="59.4765649" lon="17.8897284">
        <ele>0</ele>
        <time>2011-01-29T11:26:53Z</time>
      </trkpt>
      <trkpt lat="59.4764727" lon="17.8897186">
        <ele>0</ele>
        <time>2011-01-29T11:26:56Z</time>
      </trkpt>
      <trkpt lat="59.4764465" lon="17.8897134">
        <ele>0</ele>
        <time>2011-01-29T11:26:57Z</time>
      </trkpt>
      <trkpt lat="59.4763714" lon="17.8896591">
        <ele>0</ele>
        <time>2011-01-29T11:27:00Z</time>
      </trkpt>
      <trkpt lat="59.4762664" lon="17.8895185">
        <ele>0</ele>
        <time>2011-01-29T11:27:04Z</time>
      </trkpt>
      <trkpt lat="59.476195" lon="17.8893452">
        <ele>0</ele>
        <time>2011-01-29T11:27:08Z</time>
      </trkpt>
      <trkpt lat="59.476129" lon="17.8891767">
        <ele>0</ele>
        <time>2011-01-29T11:27:12Z</time>
      </trkpt>
      <trkpt lat="59.4760542" lon="17.8890393">
        <ele>0</ele>
        <time>2011-01-29T11:27:16Z</time>
      </trkpt>
      <trkpt lat="59.4759493" lon="17.8889535">
        <ele>0</ele>
        <time>2011-01-29T11:27:20Z</time>
      </trkpt>
      <trkpt lat="59.47584" lon="17.8889937">
        <ele>0.618042</ele>
        <time>2011-01-29T11:27:24Z</time>
      </trkpt>
      <trkpt lat="59.4757748" lon="17.8891281">
        <ele>1.57935</ele>
        <time>2011-01-29T11:27:28Z</time>
      </trkpt>
      <trkpt lat="59.4757387" lon="17.8894053">
        <ele>2.54065</ele>
        <time>2011-01-29T11:27:32Z</time>
      </trkpt>
      <trkpt lat="59.4757456" lon="17.8896892">
        <ele>3.50195</ele>
        <time>2011-01-29T11:27:36Z</time>
      </trkpt>
      <trkpt lat="59.4758339" lon="17.8899227">
        <ele>4.46326</ele>
        <time>2011-01-29T11:27:40Z</time>
      </trkpt>
      <trkpt lat="59.4759464" lon="17.8902061">
        <ele>3.98267</ele>
        <time>2011-01-29T11:27:44Z</time>
      </trkpt>
      <trkpt lat="59.4760021" lon="17.890417">
        <ele>3.02124</ele>
        <time>2011-01-29T11:27:46Z</time>
      </trkpt>
      <trkpt lat="59.4760551" lon="17.8907671">
        <ele>3.02124</ele>
        <time>2011-01-29T11:27:49Z</time>
      </trkpt>
      <trkpt lat="59.4761079" lon="17.891171">
        <ele>1.57935</ele>
        <time>2011-01-29T11:27:53Z</time>
      </trkpt>
      <trkpt lat="59.4762337" lon="17.8913621">
        <ele>2.54065</ele>
        <time>2011-01-29T11:27:57Z</time>
      </trkpt>
      <trkpt lat="59.4763015" lon="17.8912286">
        <ele>3.02124</ele>
        <time>2011-01-29T11:28:00Z</time>
      </trkpt>
      <trkpt lat="59.4763048" lon="17.8909059">
        <ele>3.02124</ele>
        <time>2011-01-29T11:28:05Z</time>
      </trkpt>
      <trkpt lat="59.4762992" lon="17.8908474">
        <ele>3.02124</ele>
        <time>2011-01-29T11:28:06Z</time>
      </trkpt>
      <trkpt lat="59.4762855" lon="17.8905645">
        <ele>3.98267</ele>
        <time>2011-01-29T11:28:11Z</time>
      </trkpt>
      <trkpt lat="59.4763353" lon="17.8902858">
        <ele>4.94385</ele>
        <time>2011-01-29T11:28:17Z</time>
      </trkpt>
      <trkpt lat="59.4764229" lon="17.8902241">
        <ele>4.94385</ele>
        <time>2011-01-29T11:28:21Z</time>
      </trkpt>
      <trkpt lat="59.4765022" lon="17.8902397">
        <ele>4.46326</ele>
        <time>2011-01-29T11:28:24Z</time>
      </trkpt>
      <trkpt lat="59.4766195" lon="17.8903357">
        <ele>3.98267</ele>
        <time>2011-01-29T11:28:28Z</time>
      </trkpt>
      <trkpt lat="59.4767404" lon="17.8904895">
        <ele>4.46326</ele>
        <time>2011-01-29T11:28:32Z</time>
      </trkpt>
      <trkpt lat="59.4768284" lon="17.8906258">
        <ele>5.42456</ele>
        <time>2011-01-29T11:28:36Z</time>
      </trkpt>
      <trkpt lat="59.4769462" lon="17.890776">
        <ele>6.38586</ele>
        <time>2011-01-29T11:28:40Z</time>
      </trkpt>
      <trkpt lat="59.4770909" lon="17.8909125">
        <ele>6.38586</ele>
        <time>2011-01-29T11:28:45Z</time>
      </trkpt>
      <trkpt lat="59.4772631" lon="17.8909966">
        <ele>6.38586</ele>
        <time>2011-01-29T11:28:50Z</time>
      </trkpt>
      <trkpt lat="59.4774811" lon="17.8909785">
        <ele>5.42456</ele>
        <time>2011-01-29T11:28:56Z</time>
      </trkpt>
      <trkpt lat="59.4776437" lon="17.8909654">
        <ele>5.42456</ele>
        <time>2011-01-29T11:29:00Z</time>
      </trkpt>
      <trkpt lat="59.4777619" lon="17.8909647">
        <ele>5.90527</ele>
        <time>2011-01-29T11:29:04Z</time>
      </trkpt>
      <trkpt lat="59.4778831" lon="17.8909397">
        <ele>4.94385</ele>
        <time>2011-01-29T11:29:09Z</time>
      </trkpt>
      <trkpt lat="59.4779934" lon="17.8908665">
        <ele>3.02124</ele>
        <time>2011-01-29T11:29:13Z</time>
      </trkpt>
      <trkpt lat="59.4780897" lon="17.890764">
        <ele>2.06006</ele>
        <time>2011-01-29T11:29:17Z</time>
      </trkpt>
      <trkpt lat="59.478211" lon="17.8906363">
        <ele>0.618042</ele>
        <time>2011-01-29T11:29:22Z</time>
      </trkpt>
      <trkpt lat="59.4783274" lon="17.890545">
        <ele>0.137451</ele>
        <time>2011-01-29T11:29:26Z</time>
      </trkpt>
      <trkpt lat="59.4784396" lon="17.8904946">
        <ele>0</ele>
        <time>2011-01-29T11:29:30Z</time>
      </trkpt>
      <trkpt lat="59.4785591" lon="17.8904545">
        <ele>0</ele>
        <time>2011-01-29T11:29:34Z</time>
      </trkpt>
      <trkpt lat="59.4786918" lon="17.8904117">
        <ele>0</ele>
        <time>2011-01-29T11:29:38Z</time>
      </trkpt>
      <trkpt lat="59.478832" lon="17.8903709">
        <ele>0</ele>
        <time>2011-01-29T11:29:42Z</time>
      </trkpt>
      <trkpt lat="59.4789887" lon="17.8902998">
        <ele>0</ele>
        <time>2011-01-29T11:29:47Z</time>
      </trkpt>
      <trkpt lat="59.4791554" lon="17.8901284">
        <ele>0</ele>
        <time>2011-01-29T11:29:53Z</time>
      </trkpt>
      <trkpt lat="59.4792657" lon="17.8899864">
        <ele>0</ele>
        <time>2011-01-29T11:29:58Z</time>
      </trkpt>
      <trkpt lat="59.4793853" lon="17.8898553">
        <ele>0</ele>
        <time>2011-01-29T11:30:03Z</time>
      </trkpt>
      <trkpt lat="59.4794851" lon="17.8897601">
        <ele>0</ele>
        <time>2011-01-29T11:30:07Z</time>
      </trkpt>
      <trkpt lat="59.4796287" lon="17.8896938">
        <ele>0</ele>
        <time>2011-01-29T11:30:12Z</time>
      </trkpt>
      <trkpt lat="59.4797732" lon="17.8896939">
        <ele>0</ele>
        <time>2011-01-29T11:30:16Z</time>
      </trkpt>
      <trkpt lat="59.4798117" lon="17.8896907">
        <ele>0</ele>
        <time>2011-01-29T11:30:17Z</time>
      </trkpt>
      <trkpt lat="59.4800358" lon="17.8897606">
        <ele>0</ele>
        <time>2011-01-29T11:30:23Z</time>
      </trkpt>
      <trkpt lat="59.4802012" lon="17.889791">
        <ele>0</ele>
        <time>2011-01-29T11:30:27Z</time>
      </trkpt>
      <trkpt lat="59.4803219" lon="17.8898072">
        <ele>0</ele>
        <time>2011-01-29T11:30:30Z</time>
      </trkpt>
      <trkpt lat="59.4805141" lon="17.8898414">
        <ele>0</ele>
        <time>2011-01-29T11:30:35Z</time>
      </trkpt>
      <trkpt lat="59.480632" lon="17.8898705">
        <ele>1.57935</ele>
        <time>2011-01-29T11:30:39Z</time>
      </trkpt>
      <trkpt lat="59.48081" lon="17.889889">
        <ele>3.02124</ele>
        <time>2011-01-29T11:30:45Z</time>
      </trkpt>
      <trkpt lat="59.4809385" lon="17.8898717">
        <ele>4.94385</ele>
        <time>2011-01-29T11:30:49Z</time>
      </trkpt>
      <trkpt lat="59.481073" lon="17.8898304">
        <ele>4.94385</ele>
        <time>2011-01-29T11:30:53Z</time>
      </trkpt>
      <trkpt lat="59.4812697" lon="17.889755">
        <ele>5.42456</ele>
        <time>2011-01-29T11:30:59Z</time>
      </trkpt>
      <trkpt lat="59.4813886" lon="17.8896224">
        <ele>5.42456</ele>
        <time>2011-01-29T11:31:03Z</time>
      </trkpt>
      <trkpt lat="59.4815145" lon="17.8894668">
        <ele>4.46326</ele>
        <time>2011-01-29T11:31:08Z</time>
      </trkpt>
      <trkpt lat="59.4816999" lon="17.8892432">
        <ele>3.50195</ele>
        <time>2011-01-29T11:31:15Z</time>
      </trkpt>
      <trkpt lat="59.4817952" lon="17.8891307">
        <ele>3.02124</ele>
        <time>2011-01-29T11:31:19Z</time>
      </trkpt>
      <trkpt lat="59.4818823" lon="17.8890129">
        <ele>3.02124</ele>
        <time>2011-01-29T11:31:23Z</time>
      </trkpt>
      <trkpt lat="59.4819771" lon="17.8888912">
        <ele>2.54065</ele>
        <time>2011-01-29T11:31:27Z</time>
      </trkpt>
      <trkpt lat="59.4820748" lon="17.88878">
        <ele>1.57935</ele>
        <time>2011-01-29T11:31:31Z</time>
      </trkpt>
      <trkpt lat="59.4821605" lon="17.8887153">
        <ele>1.09863</ele>
        <time>2011-01-29T11:31:34Z</time>
      </trkpt>
      <trkpt lat="59.4821914" lon="17.8887049">
        <ele>1.57935</ele>
        <time>2011-01-29T11:31:35Z</time>
      </trkpt>
      <trkpt lat="59.4823308" lon="17.8886515">
        <ele>0.618042</ele>
        <time>2011-01-29T11:31:39Z</time>
      </trkpt>
      <trkpt lat="59.482467" lon="17.8886235">
        <ele>0</ele>
        <time>2011-01-29T11:31:43Z</time>
      </trkpt>
      <trkpt lat="59.4826461" lon="17.8885866">
        <ele>0</ele>
        <time>2011-01-29T11:31:48Z</time>
      </trkpt>
      <trkpt lat="59.4827851" lon="17.8884888">
        <ele>0</ele>
        <time>2011-01-29T11:31:52Z</time>
      </trkpt>
      <trkpt lat="59.482902" lon="17.8883904">
        <ele>0</ele>
        <time>2011-01-29T11:31:56Z</time>
      </trkpt>
      <trkpt lat="59.4829893" lon="17.8882763">
        <ele>0</ele>
        <time>2011-01-29T11:32:00Z</time>
      </trkpt>
      <trkpt lat="59.4830928" lon="17.8881281">
        <ele>0</ele>
        <time>2011-01-29T11:32:05Z</time>
      </trkpt>
      <trkpt lat="59.48319" lon="17.8879491">
        <ele>0</ele>
        <time>2011-01-29T11:32:10Z</time>
      </trkpt>
      <trkpt lat="59.4832698" lon="17.8877171">
        <ele>0.137451</ele>
        <time>2011-01-29T11:32:16Z</time>
      </trkpt>
      <trkpt lat="59.4833248" lon="17.8875001">
        <ele>0</ele>
        <time>2011-01-29T11:32:21Z</time>
      </trkpt>
      <trkpt lat="59.4833619" lon="17.8871877">
        <ele>1.09863</ele>
        <time>2011-01-29T11:32:28Z</time>
      </trkpt>
      <trkpt lat="59.4834149" lon="17.8869385">
        <ele>2.06006</ele>
        <time>2011-01-29T11:32:33Z</time>
      </trkpt>
      <trkpt lat="59.4834907" lon="17.8867166">
        <ele>2.54065</ele>
        <time>2011-01-29T11:32:37Z</time>
      </trkpt>
      <trkpt lat="59.4836092" lon="17.8864816">
        <ele>1.57935</ele>
        <time>2011-01-29T11:32:42Z</time>
      </trkpt>
      <trkpt lat="59.4837538" lon="17.8863322">
        <ele>1.57935</ele>
        <time>2011-01-29T11:32:47Z</time>
      </trkpt>
      <trkpt lat="59.483872" lon="17.8862367">
        <ele>1.57935</ele>
        <time>2011-01-29T11:32:51Z</time>
      </trkpt>
      <trkpt lat="59.4839842" lon="17.8861247">
        <ele>1.09863</ele>
        <time>2011-01-29T11:32:55Z</time>
      </trkpt>
      <trkpt lat="59.4841117" lon="17.8859096">
        <ele>1.57935</ele>
        <time>2011-01-29T11:33:01Z</time>
      </trkpt>
      <trkpt lat="59.4842309" lon="17.8856134">
        <ele>0.137451</ele>
        <time>2011-01-29T11:33:08Z</time>
      </trkpt>
      <trkpt lat="59.484283" lon="17.8854539">
        <ele>0.137451</ele>
        <time>2011-01-29T11:33:12Z</time>
      </trkpt>
      <trkpt lat="59.4843479" lon="17.8852694">
        <ele>1.09863</ele>
        <time>2011-01-29T11:33:17Z</time>
      </trkpt>
      <trkpt lat="59.4844261" lon="17.8850322">
        <ele>3.02124</ele>
        <time>2011-01-29T11:33:23Z</time>
      </trkpt>
      <trkpt lat="59.4844809" lon="17.8848752">
        <ele>4.94385</ele>
        <time>2011-01-29T11:33:28Z</time>
      </trkpt>
      <trkpt lat="59.484558" lon="17.8846684">
        <ele>5.42456</ele>
        <time>2011-01-29T11:33:33Z</time>
      </trkpt>
      <trkpt lat="59.484652" lon="17.8845778">
        <ele>5.42456</ele>
        <time>2011-01-29T11:33:37Z</time>
      </trkpt>
      <trkpt lat="59.4848109" lon="17.8844856">
        <ele>4.46326</ele>
        <time>2011-01-29T11:33:42Z</time>
      </trkpt>
      <trkpt lat="59.4849416" lon="17.8843746">
        <ele>3.98267</ele>
        <time>2011-01-29T11:33:46Z</time>
      </trkpt>
      <trkpt lat="59.4850757" lon="17.8842913">
        <ele>4.46326</ele>
        <time>2011-01-29T11:33:50Z</time>
      </trkpt>
      <trkpt lat="59.4851926" lon="17.8842396">
        <ele>5.42456</ele>
        <time>2011-01-29T11:33:54Z</time>
      </trkpt>
      <trkpt lat="59.4852953" lon="17.8842127">
        <ele>4.46326</ele>
        <time>2011-01-29T11:33:58Z</time>
      </trkpt>
      <trkpt lat="59.4854202" lon="17.8841931">
        <ele>4.46326</ele>
        <time>2011-01-29T11:34:03Z</time>
      </trkpt>
      <trkpt lat="59.4855702" lon="17.8841887">
        <ele>3.50195</ele>
        <time>2011-01-29T11:34:09Z</time>
      </trkpt>
      <trkpt lat="59.4857347" lon="17.8841965">
        <ele>3.98267</ele>
        <time>2011-01-29T11:34:15Z</time>
      </trkpt>
      <trkpt lat="59.4858859" lon="17.8841889">
        <ele>4.46326</ele>
        <time>2011-01-29T11:34:20Z</time>
      </trkpt>
      <trkpt lat="59.4860776" lon="17.8842044">
        <ele>5.90527</ele>
        <time>2011-01-29T11:34:26Z</time>
      </trkpt>
      <trkpt lat="59.4862235" lon="17.8842118">
        <ele>6.86646</ele>
        <time>2011-01-29T11:34:30Z</time>
      </trkpt>
      <trkpt lat="59.486349" lon="17.8842364">
        <ele>7.82788</ele>
        <time>2011-01-29T11:34:34Z</time>
      </trkpt>
      <trkpt lat="59.4864746" lon="17.8842298">
        <ele>8.30859</ele>
        <time>2011-01-29T11:34:38Z</time>
      </trkpt>
      <trkpt lat="59.4866178" lon="17.8841956">
        <ele>8.30859</ele>
        <time>2011-01-29T11:34:43Z</time>
      </trkpt>
      <trkpt lat="59.4867887" lon="17.8841132">
        <ele>7.34717</ele>
        <time>2011-01-29T11:34:49Z</time>
      </trkpt>
      <trkpt lat="59.4869763" lon="17.8840752">
        <ele>6.86646</ele>
        <time>2011-01-29T11:34:54Z</time>
      </trkpt>
      <trkpt lat="59.4871451" lon="17.8841351">
        <ele>5.90527</ele>
        <time>2011-01-29T11:34:58Z</time>
      </trkpt>
      <trkpt lat="59.4872437" lon="17.8841775">
        <ele>6.38586</ele>
        <time>2011-01-29T11:35:00Z</time>
      </trkpt>
      <trkpt lat="59.4874478" lon="17.8841406">
        <ele>6.38586</ele>
        <time>2011-01-29T11:35:04Z</time>
      </trkpt>
      <trkpt lat="59.4876786" lon="17.8839428">
        <ele>4.46326</ele>
        <time>2011-01-29T11:35:09Z</time>
      </trkpt>
      <trkpt lat="59.4877218" lon="17.8839058">
        <ele>3.98267</ele>
        <time>2011-01-29T11:35:10Z</time>
      </trkpt>
      <trkpt lat="59.4880009" lon="17.8838268">
        <ele>1.57935</ele>
        <time>2011-01-29T11:35:16Z</time>
      </trkpt>
      <trkpt lat="59.4881994" lon="17.8836763">
        <ele>0</ele>
        <time>2011-01-29T11:35:21Z</time>
      </trkpt>
      <trkpt lat="59.4882852" lon="17.8834847">
        <ele>0</ele>
        <time>2011-01-29T11:35:24Z</time>
      </trkpt>
      <trkpt lat="59.4883339" lon="17.8833604">
        <ele>0</ele>
        <time>2011-01-29T11:35:26Z</time>
      </trkpt>
      <trkpt lat="59.48842" lon="17.8829786">
        <ele>1.57935</ele>
        <time>2011-01-29T11:35:33Z</time>
      </trkpt>
      <trkpt lat="59.4884268" lon="17.8828006">
        <ele>3.50195</ele>
        <time>2011-01-29T11:35:38Z</time>
      </trkpt>
      <trkpt lat="59.4884375" lon="17.882572">
        <ele>5.42456</ele>
        <time>2011-01-29T11:35:44Z</time>
      </trkpt>
      <trkpt lat="59.4884521" lon="17.882409">
        <ele>5.90527</ele>
        <time>2011-01-29T11:35:48Z</time>
      </trkpt>
      <trkpt lat="59.4885061" lon="17.8822169">
        <ele>7.34717</ele>
        <time>2011-01-29T11:35:52Z</time>
      </trkpt>
      <trkpt lat="59.4885949" lon="17.8821232">
        <ele>6.86646</ele>
        <time>2011-01-29T11:35:56Z</time>
      </trkpt>
      <trkpt lat="59.4887519" lon="17.8819509">
        <ele>5.90527</ele>
        <time>2011-01-29T11:36:01Z</time>
      </trkpt>
      <trkpt lat="59.4888427" lon="17.881776">
        <ele>4.46326</ele>
        <time>2011-01-29T11:36:05Z</time>
      </trkpt>
      <trkpt lat="59.488925" lon="17.8816351">
        <ele>3.50195</ele>
        <time>2011-01-29T11:36:09Z</time>
      </trkpt>
      <trkpt lat="59.4890338" lon="17.8814888">
        <ele>2.54065</ele>
        <time>2011-01-29T11:36:14Z</time>
      </trkpt>
      <trkpt lat="59.4891598" lon="17.8813891">
        <ele>0.137451</ele>
        <time>2011-01-29T11:36:18Z</time>
      </trkpt>
      <trkpt lat="59.4893095" lon="17.8813528">
        <ele>0</ele>
        <time>2011-01-29T11:36:21Z</time>
      </trkpt>
      <trkpt lat="59.4894151" lon="17.88135">
        <ele>0</ele>
        <time>2011-01-29T11:36:23Z</time>
      </trkpt>
      <trkpt lat="59.4895164" lon="17.8813541">
        <ele>0</ele>
        <time>2011-01-29T11:36:25Z</time>
      </trkpt>
      <trkpt lat="59.4897388" lon="17.8814246">
        <ele>0</ele>
        <time>2011-01-29T11:36:30Z</time>
      </trkpt>
      <trkpt lat="59.4898569" lon="17.8814331">
        <ele>0</ele>
        <time>2011-01-29T11:36:33Z</time>
      </trkpt>
      <trkpt lat="59.4900631" lon="17.8814394">
        <ele>0</ele>
        <time>2011-01-29T11:36:39Z</time>
      </trkpt>
      <trkpt lat="59.4901793" lon="17.8814429">
        <ele>0</ele>
        <time>2011-01-29T11:36:42Z</time>
      </trkpt>
      <trkpt lat="59.4904018" lon="17.8814051">
        <ele>0</ele>
        <time>2011-01-29T11:36:48Z</time>
      </trkpt>
      <trkpt lat="59.4906113" lon="17.8814142">
        <ele>0</ele>
        <time>2011-01-29T11:36:54Z</time>
      </trkpt>
      <trkpt lat="59.4907928" lon="17.8814243">
        <ele>0</ele>
        <time>2011-01-29T11:36:59Z</time>
      </trkpt>
      <trkpt lat="59.4909575" lon="17.881438">
        <ele>0</ele>
        <time>2011-01-29T11:37:03Z</time>
      </trkpt>
      <trkpt lat="59.4911194" lon="17.881477">
        <ele>0</ele>
        <time>2011-01-29T11:37:07Z</time>
      </trkpt>
      <trkpt lat="59.491275" lon="17.8815258">
        <ele>0</ele>
        <time>2011-01-29T11:37:11Z</time>
      </trkpt>
      <trkpt lat="59.4913466" lon="17.8815608">
        <ele>0.137451</ele>
        <time>2011-01-29T11:37:13Z</time>
      </trkpt>
      <trkpt lat="59.4915259" lon="17.8815854">
        <ele>0.618042</ele>
        <time>2011-01-29T11:37:18Z</time>
      </trkpt>
      <trkpt lat="59.4916848" lon="17.8816288">
        <ele>0.137451</ele>
        <time>2011-01-29T11:37:22Z</time>
      </trkpt>
      <trkpt lat="59.491849" lon="17.8816967">
        <ele>0.137451</ele>
        <time>2011-01-29T11:37:26Z</time>
      </trkpt>
      <trkpt lat="59.4920429" lon="17.8817465">
        <ele>0</ele>
        <time>2011-01-29T11:37:31Z</time>
      </trkpt>
      <trkpt lat="59.4921617" lon="17.8816898">
        <ele>0.137451</ele>
        <time>2011-01-29T11:37:35Z</time>
      </trkpt>
      <trkpt lat="59.4922917" lon="17.8816018">
        <ele>0.618042</ele>
        <time>2011-01-29T11:37:40Z</time>
      </trkpt>
      <trkpt lat="59.4923763" lon="17.8815133">
        <ele>1.09863</ele>
        <time>2011-01-29T11:37:44Z</time>
      </trkpt>
      <trkpt lat="59.4925216" lon="17.8812995">
        <ele>1.09863</ele>
        <time>2011-01-29T11:37:49Z</time>
      </trkpt>
      <trkpt lat="59.4926172" lon="17.8811174">
        <ele>2.54065</ele>
        <time>2011-01-29T11:37:53Z</time>
      </trkpt>
      <trkpt lat="59.4926861" lon="17.8809207">
        <ele>2.54065</ele>
        <time>2011-01-29T11:37:57Z</time>
      </trkpt>
      <trkpt lat="59.49271" lon="17.8807069">
        <ele>3.02124</ele>
        <time>2011-01-29T11:38:02Z</time>
      </trkpt>
      <trkpt lat="59.4927107" lon="17.8806658">
        <ele>3.50195</ele>
        <time>2011-01-29T11:38:03Z</time>
      </trkpt>
      <trkpt lat="59.4926454" lon="17.8804409">
        <ele>3.98267</ele>
        <time>2011-01-29T11:38:08Z</time>
      </trkpt>
      <trkpt lat="59.492531" lon="17.8803041">
        <ele>3.50195</ele>
        <time>2011-01-29T11:38:12Z</time>
      </trkpt>
      <trkpt lat="59.4923942" lon="17.8801363">
        <ele>3.02124</ele>
        <time>2011-01-29T11:38:17Z</time>
      </trkpt>
      <trkpt lat="59.4923165" lon="17.8799749">
        <ele>3.02124</ele>
        <time>2011-01-29T11:38:21Z</time>
      </trkpt>
      <trkpt lat="59.4922729" lon="17.8798094">
        <ele>3.50195</ele>
        <time>2011-01-29T11:38:25Z</time>
      </trkpt>
      <trkpt lat="59.4922451" lon="17.8795515">
        <ele>3.50195</ele>
        <time>2011-01-29T11:38:31Z</time>
      </trkpt>
      <trkpt lat="59.4921718" lon="17.879375">
        <ele>3.50195</ele>
        <time>2011-01-29T11:38:36Z</time>
      </trkpt>
      <trkpt lat="59.4920739" lon="17.8792734">
        <ele>3.50195</ele>
        <time>2011-01-29T11:38:40Z</time>
      </trkpt>
      <trkpt lat="59.492047" lon="17.8792544">
        <ele>3.98267</ele>
        <time>2011-01-29T11:38:41Z</time>
      </trkpt>
      <trkpt lat="59.4919103" lon="17.8792662">
        <ele>3.98267</ele>
        <time>2011-01-29T11:38:46Z</time>
      </trkpt>
      <trkpt lat="59.4918425" lon="17.8792849">
        <ele>4.46326</ele>
        <time>2011-01-29T11:38:48Z</time>
      </trkpt>
      <trkpt lat="59.4916741" lon="17.8793995">
        <ele>3.98267</ele>
        <time>2011-01-29T11:38:53Z</time>
      </trkpt>
      <trkpt lat="59.491545" lon="17.879524">
        <ele>4.46326</ele>
        <time>2011-01-29T11:38:57Z</time>
      </trkpt>
      <trkpt lat="59.4914287" lon="17.8796326">
        <ele>4.94385</ele>
        <time>2011-01-29T11:39:01Z</time>
      </trkpt>
      <trkpt lat="59.4912949" lon="17.8796954">
        <ele>4.46326</ele>
        <time>2011-01-29T11:39:05Z</time>
      </trkpt>
      <trkpt lat="59.4911551" lon="17.8796749">
        <ele>3.98267</ele>
        <time>2011-01-29T11:39:09Z</time>
      </trkpt>
      <trkpt lat="59.4910332" lon="17.8796081">
        <ele>3.98267</ele>
        <time>2011-01-29T11:39:13Z</time>
      </trkpt>
      <trkpt lat="59.4909038" lon="17.8795404">
        <ele>3.50195</ele>
        <time>2011-01-29T11:39:17Z</time>
      </trkpt>
      <trkpt lat="59.4908485" lon="17.879503">
        <ele>3.98267</ele>
        <time>2011-01-29T11:39:19Z</time>
      </trkpt>
      <trkpt lat="59.4907173" lon="17.8793771">
        <ele>4.94385</ele>
        <time>2011-01-29T11:39:24Z</time>
      </trkpt>
      <trkpt lat="59.4905532" lon="17.879273">
        <ele>5.42456</ele>
        <time>2011-01-29T11:39:30Z</time>
      </trkpt>
      <trkpt lat="59.4904418" lon="17.8792213">
        <ele>5.90527</ele>
        <time>2011-01-29T11:39:34Z</time>
      </trkpt>
      <trkpt lat="59.4903067" lon="17.8792097">
        <ele>4.94385</ele>
        <time>2011-01-29T11:39:39Z</time>
      </trkpt>
      <trkpt lat="59.4901444" lon="17.8792215">
        <ele>3.50195</ele>
        <time>2011-01-29T11:39:44Z</time>
      </trkpt>
      <trkpt lat="59.4900218" lon="17.8792035">
        <ele>3.50195</ele>
        <time>2011-01-29T11:39:48Z</time>
      </trkpt>
      <trkpt lat="59.4899123" lon="17.8791854">
        <ele>3.02124</ele>
        <time>2011-01-29T11:39:52Z</time>
      </trkpt>
      <trkpt lat="59.4897858" lon="17.8791567">
        <ele>3.02124</ele>
        <time>2011-01-29T11:39:57Z</time>
      </trkpt>
      <trkpt lat="59.4896455" lon="17.8791506">
        <ele>0.618042</ele>
        <time>2011-01-29T11:40:02Z</time>
      </trkpt>
      <trkpt lat="59.4895447" lon="17.8791263">
        <ele>0</ele>
        <time>2011-01-29T11:40:06Z</time>
      </trkpt>
      <trkpt lat="59.489414" lon="17.8790967">
        <ele>0</ele>
        <time>2011-01-29T11:40:11Z</time>
      </trkpt>
      <trkpt lat="59.4893265" lon="17.8790889">
        <ele>0</ele>
        <time>2011-01-29T11:40:15Z</time>
      </trkpt>
      <trkpt lat="59.4892152" lon="17.8790821">
        <ele>0</ele>
        <time>2011-01-29T11:40:20Z</time>
      </trkpt>
      <trkpt lat="59.4891308" lon="17.8790812">
        <ele>0</ele>
        <time>2011-01-29T11:40:24Z</time>
      </trkpt>
      <trkpt lat="59.4890572" lon="17.8790979">
        <ele>0</ele>
        <time>2011-01-29T11:40:28Z</time>
      </trkpt>
      <trkpt lat="59.4889618" lon="17.8791187">
        <ele>0</ele>
        <time>2011-01-29T11:40:33Z</time>
      </trkpt>
      <trkpt lat="59.488882" lon="17.8790567">
        <ele>0</ele>
        <time>2011-01-29T11:40:38Z</time>
      </trkpt>
      <trkpt lat="59.4888613" lon="17.8789197">
        <ele>0</ele>
        <time>2011-01-29T11:40:42Z</time>
      </trkpt>
      <trkpt lat="59.4888577" lon="17.8787425">
        <ele>0.618042</ele>
        <time>2011-01-29T11:40:46Z</time>
      </trkpt>
      <trkpt lat="59.4887694" lon="17.8785768">
        <ele>1.57935</ele>
        <time>2011-01-29T11:40:51Z</time>
      </trkpt>
      <trkpt lat="59.4886425" lon="17.8784939">
        <ele>3.50195</ele>
        <time>2011-01-29T11:40:56Z</time>
      </trkpt>
      <trkpt lat="59.4885225" lon="17.8783649">
        <ele>4.94385</ele>
        <time>2011-01-29T11:41:01Z</time>
      </trkpt>
      <trkpt lat="59.4884245" lon="17.8782105">
        <ele>6.38586</ele>
        <time>2011-01-29T11:41:06Z</time>
      </trkpt>
      <trkpt lat="59.4883581" lon="17.8780219">
        <ele>7.82788</ele>
        <time>2011-01-29T11:41:11Z</time>
      </trkpt>
      <trkpt lat="59.4883281" lon="17.8777944">
        <ele>10.2312</ele>
        <time>2011-01-29T11:41:16Z</time>
      </trkpt>
      <trkpt lat="59.4883242" lon="17.8776215">
        <ele>11.1925</ele>
        <time>2011-01-29T11:41:20Z</time>
      </trkpt>
      <trkpt lat="59.488339" lon="17.8774428">
        <ele>12.1538</ele>
        <time>2011-01-29T11:41:24Z</time>
      </trkpt>
      <trkpt lat="59.4883444" lon="17.8773951">
        <ele>12.6344</ele>
        <time>2011-01-29T11:41:25Z</time>
      </trkpt>
      <trkpt lat="59.488376" lon="17.8771792">
        <ele>12.6344</ele>
        <time>2011-01-29T11:41:30Z</time>
      </trkpt>
      <trkpt lat="59.4883821" lon="17.8771445">
        <ele>13.1151</ele>
        <time>2011-01-29T11:41:31Z</time>
      </trkpt>
      <trkpt lat="59.48842" lon="17.8768859">
        <ele>13.1151</ele>
        <time>2011-01-29T11:42:14Z</time>
      </trkpt>
      <trkpt lat="59.4884189" lon="17.8768684">
        <ele>13.1151</ele>
        <time>2011-01-29T11:42:15Z</time>
      </trkpt>
      <trkpt lat="59.4884102" lon="17.8767534">
        <ele>12.6344</ele>
        <time>2011-01-29T11:42:19Z</time>
      </trkpt>
      <trkpt lat="59.4883095" lon="17.8765855">
        <ele>11.6732</ele>
        <time>2011-01-29T11:42:23Z</time>
      </trkpt>
      <trkpt lat="59.4881414" lon="17.8763714">
        <ele>8.78918</ele>
        <time>2011-01-29T11:42:28Z</time>
      </trkpt>
      <trkpt lat="59.487992" lon="17.8760804">
        <ele>6.86646</ele>
        <time>2011-01-29T11:42:33Z</time>
      </trkpt>
      <trkpt lat="59.4879191" lon="17.875905">
        <ele>5.42456</ele>
        <time>2011-01-29T11:42:36Z</time>
      </trkpt>
      <trkpt lat="59.4878034" lon="17.8756843">
        <ele>4.94385</ele>
        <time>2011-01-29T11:42:40Z</time>
      </trkpt>
      <trkpt lat="59.4875932" lon="17.8753413">
        <ele>6.86646</ele>
        <time>2011-01-29T11:42:47Z</time>
      </trkpt>
      <trkpt lat="59.48749" lon="17.8751826">
        <ele>8.30859</ele>
        <time>2011-01-29T11:42:51Z</time>
      </trkpt>
      <trkpt lat="59.4873233" lon="17.8750603">
        <ele>9.2699</ele>
        <time>2011-01-29T11:42:56Z</time>
      </trkpt>
      <trkpt lat="59.4871587" lon="17.874964">
        <ele>10.7118</ele>
        <time>2011-01-29T11:43:01Z</time>
      </trkpt>
      <trkpt lat="59.4869877" lon="17.8748586">
        <ele>10.7118</ele>
        <time>2011-01-29T11:43:06Z</time>
      </trkpt>
      <trkpt lat="59.4867815" lon="17.8748726">
        <ele>12.1538</ele>
        <time>2011-01-29T11:43:11Z</time>
      </trkpt>
      <trkpt lat="59.4866573" lon="17.8749373">
        <ele>14.557</ele>
        <time>2011-01-29T11:43:15Z</time>
      </trkpt>
      <trkpt lat="59.4865324" lon="17.8750091">
        <ele>15.0377</ele>
        <time>2011-01-29T11:43:20Z</time>
      </trkpt>
      <trkpt lat="59.4864335" lon="17.8750631">
        <ele>14.0764</ele>
        <time>2011-01-29T11:43:25Z</time>
      </trkpt>
      <trkpt lat="59.4862687" lon="17.87508">
        <ele>11.1925</ele>
        <time>2011-01-29T11:43:29Z</time>
      </trkpt>
      <trkpt lat="59.4861706" lon="17.875045">
        <ele>10.2312</ele>
        <time>2011-01-29T11:43:32Z</time>
      </trkpt>
      <trkpt lat="59.4860086" lon="17.8749731">
        <ele>7.82788</ele>
        <time>2011-01-29T11:43:37Z</time>
      </trkpt>
      <trkpt lat="59.4858798" lon="17.8749564">
        <ele>7.82788</ele>
        <time>2011-01-29T11:43:41Z</time>
      </trkpt>
      <trkpt lat="59.4857729" lon="17.8750517">
        <ele>7.34717</ele>
        <time>2011-01-29T11:43:45Z</time>
      </trkpt>
      <trkpt lat="59.4856714" lon="17.8752485">
        <ele>8.78918</ele>
        <time>2011-01-29T11:43:49Z</time>
      </trkpt>
      <trkpt lat="59.4855606" lon="17.87551">
        <ele>8.30859</ele>
        <time>2011-01-29T11:43:53Z</time>
      </trkpt>
      <trkpt lat="59.4854061" lon="17.8758272">
        <ele>8.78918</ele>
        <time>2011-01-29T11:43:58Z</time>
      </trkpt>
      <trkpt lat="59.4852459" lon="17.87617">
        <ele>9.2699</ele>
        <time>2011-01-29T11:44:03Z</time>
      </trkpt>
      <trkpt lat="59.4851938" lon="17.8763895">
        <ele>8.78918</ele>
        <time>2011-01-29T11:44:07Z</time>
      </trkpt>
      <trkpt lat="59.4851881" lon="17.8765652">
        <ele>8.78918</ele>
        <time>2011-01-29T11:44:12Z</time>
      </trkpt>
      <trkpt lat="59.4852021" lon="17.8765568">
        <ele>11.1925</ele>
        <time>2011-01-29T11:44:21Z</time>
      </trkpt>
      <trkpt lat="59.4852026" lon="17.8765565">
        <ele>11.6732</ele>
        <time>2011-01-29T11:44:24Z</time>
      </trkpt>
    </trkseg>
  </trk>
</gpx>